OAL463 WSSS-KEWR
Flight info
| Callsign | OAL463 |
|---|---|
| Flight time | N/A |
| Altitude | 29000 |
| Route | TOMAN5B TOMAN/N0521F270 L625 AKMON/K0961F270 L625 ANOKI/N0517F270 L625 AKOTA/N0514F310 L625 MEVIN B462 KAZIK Y59 AZAMA Y57 YULIA/N0502F330 Y57 POROT A590 POXED/N0498F340 A590 POWAL/N0496F350 DCT CURVS DCT CDB DCT 55N160W 55N150W/N0486F370 53N140W DCT MANJO DCT DUGGS DCT 53N122W DCT URPUX Q949 ELLKS Q862 YEGGA Q819 REFEX/N0486F390 Q819 TAGOT Q908 KOBID Q831 AGLIN DCT SSM Q917 PEPLA Q140 AHPAH DCT GEE FLOSI4 |
| Aircraft | B77L/H-SDE1E2E3FGHIJ2J3J4J5M1RWXY/LB1D1 |
Departure
| Time | 2026-05-07 18:03 |
|---|---|
| Airport | Singapore Changi Airport (WSSS) |
Arrival
| Time | N/A |
|---|---|
| Airport | Newark Liberty International Airport (KEWR) |
| Time | Latitude | Longitude | Altitude | Speed | Heading |
|---|---|---|---|---|---|
| 2026-05-07 17:43 | 1.36355 | 103.99414 | 29 ft | 0 kts | 323° |
| 2026-05-07 17:50 | 1.36353 | 103.99415 | 29 ft | 3 kts | 323° |
| 2026-05-07 17:50 | 1.36337 | 103.99427 | 29 ft | 3 kts | 323° |
| 2026-05-07 17:51 | 1.36322 | 103.99439 | 29 ft | 2 kts | 353° |
| 2026-05-07 17:51 | 1.36302 | 103.99437 | 29 ft | 3 kts | 12° |
| 2026-05-07 17:51 | 1.36283 | 103.99432 | 29 ft | 3 kts | 23° |
| 2026-05-07 17:51 | 1.36264 | 103.99424 | 28 ft | 3 kts | 23° |
| 2026-05-07 17:52 | 1.36247 | 103.99417 | 29 ft | 0 kts | 23° |
| 2026-05-07 17:53 | 1.36255 | 103.99421 | 29 ft | 3 kts | 23° |
| 2026-05-07 17:53 | 1.36274 | 103.99437 | 29 ft | 5 kts | 46° |
| 2026-05-07 17:53 | 1.36302 | 103.99470 | 29 ft | 7 kts | 50° |
| 2026-05-07 17:53 | 1.36308 | 103.99477 | 29 ft | 0 kts | 50° |
| 2026-05-07 17:56 | 1.36308 | 103.99478 | 28 ft | 1 kts | 50° |
| 2026-05-07 17:57 | 1.36321 | 103.99494 | 29 ft | 5 kts | 52° |
| 2026-05-07 17:57 | 1.36332 | 103.99522 | 29 ft | 8 kts | 75° |
| 2026-05-07 17:57 | 1.36314 | 103.99589 | 29 ft | 8 kts | 115° |
| 2026-05-07 17:57 | 1.36291 | 103.99638 | 29 ft | 8 kts | 115° |
| 2026-05-07 17:58 | 1.36268 | 103.99688 | 29 ft | 8 kts | 114° |
| 2026-05-07 17:58 | 1.36249 | 103.99732 | 30 ft | 5 kts | 112° |
| 2026-05-07 17:58 | 1.36242 | 103.99750 | 30 ft | 2 kts | 112° |
| 2026-05-07 17:58 | 1.36237 | 103.99762 | 30 ft | 2 kts | 112° |
| 2026-05-07 17:59 | 1.36231 | 103.99775 | 30 ft | 2 kts | 112° |
| 2026-05-07 17:59 | 1.36226 | 103.99787 | 30 ft | 2 kts | 112° |
| 2026-05-07 17:59 | 1.36221 | 103.99800 | 30 ft | 2 kts | 112° |
| 2026-05-07 17:59 | 1.36216 | 103.99812 | 30 ft | 2 kts | 112° |
| 2026-05-07 18:00 | 1.36211 | 103.99825 | 30 ft | 2 kts | 112° |
| 2026-05-07 18:00 | 1.36205 | 103.99838 | 30 ft | 3 kts | 112° |
| 2026-05-07 18:00 | 1.36195 | 103.99863 | 30 ft | 5 kts | 112° |
| 2026-05-07 18:00 | 1.36170 | 103.99884 | 31 ft | 5 kts | 160° |
| 2026-05-07 18:01 | 1.36139 | 103.99876 | 31 ft | 0 kts | 203° |
| 2026-05-07 18:02 | 1.35976 | 103.99807 | 31 ft | 58 kts | 203° |
| 2026-05-07 18:02 | 1.35372 | 103.99550 | 33 ft | 129 kts | 203° |
| 2026-05-07 18:02 | 1.34346 | 103.99120 | 35 ft | 189 kts | 202° |
| 2026-05-07 18:03 | 1.33014 | 103.98565 | 175 ft | 217 kts | 202° |
| 2026-05-07 18:03 | 1.31667 | 103.98004 | 944 ft | 206 kts | 202° |
| 2026-05-07 18:03 | 1.30330 | 103.97438 | 1512 ft | 211 kts | 203° |
| 2026-05-07 18:03 | 1.28972 | 103.96858 | 1809 ft | 215 kts | 202° |
| 2026-05-07 18:04 | 1.27569 | 103.96261 | 2055 ft | 224 kts | 202° |
| 2026-05-07 18:04 | 1.26108 | 103.95640 | 2454 ft | 233 kts | 202° |
| 2026-05-07 18:04 | 1.24587 | 103.95006 | 2836 ft | 241 kts | 199° |
| 2026-05-07 18:04 | 1.22920 | 103.94828 | 3077 ft | 248 kts | 164° |
| 2026-05-07 18:05 | 1.21427 | 103.95686 | 3412 ft | 253 kts | 137° |
| 2026-05-07 18:05 | 1.20127 | 103.96899 | 3821 ft | 258 kts | 138° |
| 2026-05-07 18:05 | 1.18765 | 103.98107 | 4270 ft | 266 kts | 138° |
| 2026-05-07 18:05 | 1.17358 | 103.99343 | 4689 ft | 272 kts | 139° |
| 2026-05-07 18:06 | 1.15917 | 104.00603 | 5135 ft | 279 kts | 139° |
| 2026-05-07 18:06 | 1.14521 | 104.01950 | 5552 ft | 281 kts | 125° |
| 2026-05-07 18:06 | 1.13648 | 104.03715 | 5817 ft | 288 kts | 111° |
| 2026-05-07 18:06 | 1.12884 | 104.05602 | 5970 ft | 297 kts | 113° |
| 2026-05-07 18:07 | 1.12059 | 104.07539 | 6003 ft | 309 kts | 113° |
| 2026-05-07 18:07 | 1.11199 | 104.09523 | 6001 ft | 313 kts | 114° |
| 2026-05-07 18:07 | 1.10329 | 104.11518 | 6001 ft | 313 kts | 114° |
| 2026-05-07 18:07 | 1.09457 | 104.13509 | 6000 ft | 313 kts | 114° |
| 2026-05-07 18:08 | 1.08580 | 104.15510 | 5998 ft | 314 kts | 114° |
| 2026-05-07 18:08 | 1.07897 | 104.17546 | 5980 ft | 307 kts | 95° |
| 2026-05-07 18:08 | 1.07951 | 104.19684 | 6041 ft | 312 kts | 86° |
| 2026-05-07 18:08 | 1.08078 | 104.21869 | 6319 ft | 317 kts | 88° |
| 2026-05-07 18:09 | 1.08165 | 104.24070 | 6708 ft | 318 kts | 88° |
| 2026-05-07 18:09 | 1.08245 | 104.26279 | 7089 ft | 319 kts | 88° |
| 2026-05-07 18:09 | 1.08323 | 104.28502 | 7444 ft | 321 kts | 88° |
| 2026-05-07 18:09 | 1.08399 | 104.30736 | 7781 ft | 324 kts | 88° |
| 2026-05-07 18:10 | 1.08479 | 104.32991 | 8157 ft | 326 kts | 88° |
| 2026-05-07 18:10 | 1.08559 | 104.35259 | 8523 ft | 328 kts | 88° |
| 2026-05-07 18:10 | 1.08641 | 104.37543 | 8889 ft | 330 kts | 88° |
| 2026-05-07 18:10 | 1.08723 | 104.39848 | 9027 ft | 335 kts | 88° |
| 2026-05-07 18:11 | 1.08805 | 104.42199 | 9024 ft | 342 kts | 88° |
| 2026-05-07 18:11 | 1.08895 | 104.43773 | 9018 ft | 342 kts | 82° |
| 2026-05-07 18:11 | 1.10158 | 104.46691 | 9032 ft | 353 kts | 49° |
| 2026-05-07 18:11 | 1.11887 | 104.48434 | 9037 ft | 359 kts | 44° |
| 2026-05-07 18:12 | 1.13710 | 104.50189 | 9039 ft | 370 kts | 44° |
| 2026-05-07 18:12 | 1.15547 | 104.51987 | 9031 ft | 377 kts | 45° |
| 2026-05-07 18:12 | 1.17419 | 104.53835 | 9029 ft | 379 kts | 45° |
| 2026-05-07 18:12 | 1.19289 | 104.55689 | 9017 ft | 379 kts | 45° |
| 2026-05-07 18:13 | 1.21157 | 104.57545 | 9017 ft | 378 kts | 45° |
| 2026-05-07 18:13 | 1.23023 | 104.59400 | 9008 ft | 378 kts | 45° |
| 2026-05-07 18:13 | 1.24889 | 104.61251 | 9085 ft | 381 kts | 45° |
| 2026-05-07 18:13 | 1.26783 | 104.63133 | 9719 ft | 384 kts | 45° |
| 2026-05-07 18:14 | 1.28672 | 104.65008 | 10474 ft | 384 kts | 45° |
| 2026-05-07 18:14 | 1.30572 | 104.66897 | 11163 ft | 385 kts | 45° |
| 2026-05-07 18:14 | 1.32411 | 104.68834 | 11700 ft | 385 kts | 53° |
| 2026-05-07 18:14 | 1.33593 | 104.71238 | 12110 ft | 391 kts | 76° |
| 2026-05-07 18:15 | 1.33889 | 104.73932 | 12682 ft | 390 kts | 89° |
| 2026-05-07 18:15 | 1.33911 | 104.76660 | 13156 ft | 396 kts | 89° |
| 2026-05-07 18:15 | 1.33949 | 104.79423 | 13714 ft | 399 kts | 89° |
| 2026-05-07 18:15 | 1.34002 | 104.82198 | 14335 ft | 400 kts | 89° |
| 2026-05-07 18:16 | 1.34063 | 104.84994 | 14905 ft | 403 kts | 89° |
| 2026-05-07 18:16 | 1.34130 | 104.87796 | 15430 ft | 406 kts | 88° |
| 2026-05-07 18:16 | 1.34200 | 104.90636 | 15941 ft | 410 kts | 88° |
| 2026-05-07 18:16 | 1.34271 | 104.93485 | 16450 ft | 412 kts | 88° |
| 2026-05-07 18:17 | 1.34339 | 104.96362 | 16948 ft | 414 kts | 88° |
| 2026-05-07 18:17 | 1.34407 | 104.99252 | 17432 ft | 418 kts | 88° |
| 2026-05-07 18:17 | 1.34475 | 105.02161 | 17874 ft | 420 kts | 89° |
| 2026-05-07 18:17 | 1.34549 | 105.05089 | 18310 ft | 423 kts | 88° |
| 2026-05-07 18:18 | 1.34627 | 105.08036 | 18741 ft | 426 kts | 88° |
| 2026-05-07 18:18 | 1.34697 | 105.11003 | 19180 ft | 428 kts | 89° |
| 2026-05-07 18:18 | 1.34762 | 105.13987 | 19595 ft | 430 kts | 89° |
| 2026-05-07 18:18 | 1.34829 | 105.16987 | 19990 ft | 433 kts | 88° |
| 2026-05-07 18:19 | 1.34901 | 105.19966 | 20370 ft | 436 kts | 88° |
| 2026-05-07 18:19 | 1.34976 | 105.23002 | 20760 ft | 438 kts | 88° |
| 2026-05-07 18:19 | 1.35050 | 105.26092 | 21155 ft | 440 kts | 88° |
| 2026-05-07 18:19 | 1.35122 | 105.29160 | 21519 ft | 443 kts | 88° |
| 2026-05-07 18:20 | 1.35194 | 105.32206 | 21866 ft | 445 kts | 88° |
| 2026-05-07 18:20 | 1.35266 | 105.35309 | 22217 ft | 448 kts | 89° |
| 2026-05-07 18:20 | 1.35339 | 105.38428 | 22570 ft | 450 kts | 88° |
| 2026-05-07 18:20 | 1.35416 | 105.41556 | 22893 ft | 452 kts | 88° |
| 2026-05-07 18:21 | 1.35493 | 105.44701 | 23220 ft | 454 kts | 88° |
| 2026-05-07 18:21 | 1.35569 | 105.47862 | 23526 ft | 456 kts | 88° |
| 2026-05-07 18:21 | 1.35644 | 105.51040 | 23820 ft | 458 kts | 89° |
| 2026-05-07 18:21 | 1.35718 | 105.54234 | 24117 ft | 460 kts | 89° |
| 2026-05-07 18:22 | 1.35793 | 105.57441 | 24410 ft | 463 kts | 88° |
| 2026-05-07 18:22 | 1.35845 | 105.59564 | 24607 ft | 464 kts | 88° |
| 2026-05-07 18:22 | 1.35947 | 105.63893 | 24972 ft | 467 kts | 89° |
| 2026-05-07 18:22 | 1.36024 | 105.67142 | 25233 ft | 469 kts | 89° |
| 2026-05-07 18:23 | 1.36100 | 105.70408 | 25497 ft | 471 kts | 88° |
| 2026-05-07 18:23 | 1.36282 | 105.73672 | 25678 ft | 470 kts | 80° |
| 2026-05-07 18:23 | 1.37273 | 105.76792 | 25768 ft | 475 kts | 62° |
| 2026-05-07 18:23 | 1.39172 | 105.79495 | 26011 ft | 478 kts | 48° |
| 2026-05-07 18:24 | 1.41655 | 105.81699 | 26284 ft | 480 kts | 34° |
| 2026-05-07 18:24 | 1.44526 | 105.83308 | 26469 ft | 481 kts | 28° |
| 2026-05-07 18:24 | 1.47531 | 105.84801 | 26628 ft | 485 kts | 27° |
| 2026-05-07 18:24 | 1.50565 | 105.86289 | 26843 ft | 487 kts | 27° |
| 2026-05-07 18:25 | 1.53606 | 105.87796 | 27088 ft | 488 kts | 27° |
| 2026-05-07 18:25 | 1.56637 | 105.89325 | 27347 ft | 489 kts | 28° |
| 2026-05-07 18:25 | 1.59676 | 105.90878 | 27586 ft | 491 kts | 28° |
| 2026-05-07 18:25 | 1.62712 | 105.92445 | 27803 ft | 492 kts | 28° |
| 2026-05-07 18:26 | 1.65759 | 105.94024 | 27990 ft | 494 kts | 28° |
| 2026-05-07 18:26 | 1.68813 | 105.95609 | 28191 ft | 496 kts | 28° |
| 2026-05-07 18:26 | 1.70883 | 105.96682 | 28325 ft | 496 kts | 28° |
| 2026-05-07 18:26 | 1.73951 | 105.98274 | 28511 ft | 498 kts | 28° |
| 2026-05-07 18:27 | 1.78034 | 106.00385 | 28749 ft | 500 kts | 28° |
| 2026-05-07 18:27 | 1.83190 | 106.03049 | 28824 ft | 502 kts | 28° |
| 2026-05-07 18:28 | 1.89387 | 106.06256 | 28849 ft | 501 kts | 28° |
| 2026-05-07 18:28 | 1.95570 | 106.09456 | 28852 ft | 499 kts | 28° |
| 2026-05-07 18:29 | 2.01745 | 106.12650 | 28852 ft | 499 kts | 28° |
| 2026-05-07 18:29 | 2.07919 | 106.15846 | 28853 ft | 500 kts | 28° |
| 2026-05-07 18:30 | 2.14086 | 106.19039 | 28852 ft | 500 kts | 28° |
| 2026-05-07 18:30 | 2.20266 | 106.22239 | 28852 ft | 500 kts | 28° |
| 2026-05-07 18:31 | 2.26447 | 106.25442 | 28852 ft | 500 kts | 28° |
| 2026-05-07 18:31 | 2.32634 | 106.28645 | 28851 ft | 501 kts | 28° |
| 2026-05-07 18:32 | 2.38828 | 106.31853 | 28853 ft | 501 kts | 28° |
| 2026-05-07 18:32 | 2.45016 | 106.35060 | 28852 ft | 501 kts | 28° |
| 2026-05-07 18:33 | 2.51207 | 106.38266 | 28853 ft | 501 kts | 28° |
| 2026-05-07 18:33 | 2.57401 | 106.41474 | 28852 ft | 502 kts | 28° |
| 2026-05-07 18:34 | 2.63557 | 106.44669 | 28852 ft | 501 kts | 28° |
| 2026-05-07 18:34 | 2.69750 | 106.47886 | 28853 ft | 501 kts | 28° |
| 2026-05-07 18:35 | 2.75943 | 106.51098 | 28850 ft | 501 kts | 28° |
| 2026-05-07 18:35 | 2.82154 | 106.54291 | 28853 ft | 501 kts | 28° |
| 2026-05-07 18:36 | 2.88355 | 106.57487 | 28851 ft | 501 kts | 28° |
| 2026-05-07 18:36 | 2.94539 | 106.60698 | 28864 ft | 499 kts | 28° |
| 2026-05-07 18:37 | 3.00716 | 106.63895 | 28853 ft | 500 kts | 28° |
| 2026-05-07 18:37 | 3.06890 | 106.67085 | 28856 ft | 501 kts | 28° |
| 2026-05-07 18:38 | 3.13053 | 106.70278 | 28855 ft | 502 kts | 28° |
| 2026-05-07 18:38 | 3.19258 | 106.73499 | 28852 ft | 503 kts | 28° |
| 2026-05-07 18:39 | 3.25475 | 106.76720 | 28853 ft | 503 kts | 28° |
| 2026-05-07 18:39 | 3.31699 | 106.79944 | 28851 ft | 504 kts | 28° |
| 2026-05-07 18:40 | 3.37920 | 106.83170 | 28853 ft | 503 kts | 28° |
| 2026-05-07 18:40 | 3.44137 | 106.86395 | 28852 ft | 503 kts | 28° |
| 2026-05-07 18:41 | 3.50347 | 106.89616 | 28851 ft | 502 kts | 28° |
| 2026-05-07 18:41 | 3.56528 | 106.92894 | 28848 ft | 502 kts | 32° |
| 2026-05-07 18:42 | 3.62265 | 106.96850 | 28852 ft | 501 kts | 36° |
| 2026-05-07 18:42 | 3.67927 | 107.00914 | 28853 ft | 501 kts | 36° |
| 2026-05-07 18:43 | 3.73605 | 107.04953 | 28851 ft | 501 kts | 36° |
| 2026-05-07 18:43 | 3.79330 | 107.09000 | 29040 ft | 504 kts | 36° |
| 2026-05-07 18:43 | 3.82193 | 107.11021 | 29355 ft | 503 kts | 36° |
| 2026-05-07 18:44 | 3.85047 | 107.13036 | 29667 ft | 501 kts | 36° |
| 2026-05-07 18:44 | 3.87889 | 107.15041 | 29953 ft | 500 kts | 36° |
| 2026-05-07 18:44 | 3.90733 | 107.17050 | 30209 ft | 500 kts | 36° |
| 2026-05-07 18:44 | 3.93578 | 107.19057 | 30484 ft | 499 kts | 36° |
| 2026-05-07 18:45 | 3.96410 | 107.21056 | 30759 ft | 498 kts | 36° |
| 2026-05-07 18:45 | 4.02088 | 107.25073 | 30858 ft | 499 kts | 36° |
| 2026-05-07 18:46 | 4.07765 | 107.29087 | 30849 ft | 498 kts | 36° |
| 2026-05-07 18:46 | 4.13424 | 107.33088 | 30854 ft | 497 kts | 36° |
| 2026-05-07 18:47 | 4.19060 | 107.37074 | 30850 ft | 496 kts | 36° |
| 2026-05-07 18:47 | 4.24705 | 107.41064 | 30853 ft | 496 kts | 36° |
| 2026-05-07 18:48 | 4.30348 | 107.45055 | 30852 ft | 496 kts | 36° |
| 2026-05-07 18:48 | 4.35992 | 107.49047 | 30855 ft | 497 kts | 36° |
| 2026-05-07 18:49 | 4.41633 | 107.53041 | 30853 ft | 497 kts | 36° |
| 2026-05-07 18:49 | 4.47295 | 107.57049 | 30854 ft | 498 kts | 36° |
| 2026-05-07 18:50 | 4.52959 | 107.61056 | 30849 ft | 499 kts | 36° |
| 2026-05-07 18:50 | 4.58594 | 107.65047 | 30852 ft | 499 kts | 36° |
| 2026-05-07 18:51 | 4.64281 | 107.69073 | 30854 ft | 499 kts | 36° |
| 2026-05-07 18:51 | 4.69948 | 107.73089 | 30851 ft | 499 kts | 36° |
| 2026-05-07 18:52 | 4.75611 | 107.77100 | 30852 ft | 498 kts | 36° |
| 2026-05-07 18:52 | 4.81271 | 107.81111 | 30852 ft | 498 kts | 36° |
| 2026-05-07 18:53 | 4.86926 | 107.85119 | 30851 ft | 498 kts | 36° |
| 2026-05-07 18:53 | 4.92586 | 107.89133 | 30852 ft | 497 kts | 36° |
| 2026-05-07 18:54 | 4.98235 | 107.93140 | 30853 ft | 497 kts | 36° |
| 2026-05-07 18:54 | 5.03896 | 107.97129 | 30861 ft | 497 kts | 36° |
| 2026-05-07 18:55 | 5.09570 | 108.01088 | 30856 ft | 497 kts | 36° |
| 2026-05-07 18:55 | 5.15230 | 108.05062 | 30862 ft | 497 kts | 36° |
| 2026-05-07 18:56 | 5.20897 | 108.09051 | 30865 ft | 497 kts | 36° |
| 2026-05-07 18:56 | 5.26561 | 108.13034 | 30864 ft | 496 kts | 35° |
| 2026-05-07 18:57 | 5.32213 | 108.17005 | 30865 ft | 497 kts | 36° |
| 2026-05-07 18:57 | 5.37878 | 108.20988 | 30857 ft | 497 kts | 36° |
| 2026-05-07 18:58 | 5.43538 | 108.24970 | 30867 ft | 497 kts | 36° |
| 2026-05-07 18:58 | 5.49202 | 108.28957 | 30875 ft | 497 kts | 36° |
| 2026-05-07 18:59 | 5.54866 | 108.32941 | 30869 ft | 497 kts | 36° |
| 2026-05-07 18:59 | 5.60528 | 108.36918 | 30867 ft | 495 kts | 36° |
| 2026-05-07 19:00 | 5.66145 | 108.40915 | 30878 ft | 495 kts | 36° |
| 2026-05-07 19:00 | 5.71808 | 108.44893 | 30880 ft | 496 kts | 35° |
| 2026-05-07 19:01 | 5.77478 | 108.48861 | 30869 ft | 497 kts | 36° |
| 2026-05-07 19:01 | 5.83150 | 108.52849 | 30876 ft | 498 kts | 36° |
| 2026-05-07 19:02 | 5.88822 | 108.56848 | 30867 ft | 498 kts | 36° |
| 2026-05-07 19:02 | 5.94491 | 108.60846 | 30871 ft | 498 kts | 36° |
| 2026-05-07 19:03 | 6.00159 | 108.64844 | 30868 ft | 497 kts | 36° |
| 2026-05-07 19:03 | 6.05821 | 108.68834 | 30870 ft | 497 kts | 36° |
| 2026-05-07 19:04 | 6.11488 | 108.72828 | 30872 ft | 497 kts | 36° |
| 2026-05-07 19:04 | 6.17150 | 108.76823 | 30862 ft | 497 kts | 36° |
| 2026-05-07 19:05 | 6.22811 | 108.80819 | 30863 ft | 497 kts | 36° |
| 2026-05-07 19:05 | 6.28467 | 108.84815 | 30862 ft | 497 kts | 36° |
| 2026-05-07 19:06 | 6.34123 | 108.88812 | 30863 ft | 497 kts | 36° |
| 2026-05-07 19:06 | 6.42611 | 108.94802 | 30859 ft | 497 kts | 36° |
| 2026-05-07 19:07 | 6.48266 | 108.98796 | 30860 ft | 497 kts | 36° |
| 2026-05-07 19:07 | 6.53885 | 109.02769 | 30855 ft | 497 kts | 36° |
| 2026-05-07 19:08 | 6.59539 | 109.06765 | 30855 ft | 497 kts | 36° |
| 2026-05-07 19:08 | 6.65196 | 109.10769 | 30866 ft | 497 kts | 36° |
| 2026-05-07 19:09 | 6.70850 | 109.14771 | 30855 ft | 497 kts | 36° |
| 2026-05-07 19:09 | 6.76517 | 109.18778 | 30850 ft | 497 kts | 36° |
| 2026-05-07 19:10 | 6.81261 | 109.22137 | 30851 ft | 497 kts | 36° |
| 2026-05-07 19:10 | 6.86918 | 109.26141 | 30843 ft | 498 kts | 36° |
| 2026-05-07 19:11 | 6.92585 | 109.30151 | 30833 ft | 498 kts | 36° |
| 2026-05-07 19:11 | 6.98213 | 109.34139 | 30832 ft | 498 kts | 36° |
| 2026-05-07 19:12 | 7.03907 | 109.38175 | 30830 ft | 497 kts | 36° |
| 2026-05-07 19:12 | 7.09561 | 109.42184 | 30834 ft | 497 kts | 36° |
| 2026-05-07 19:13 | 7.15213 | 109.46189 | 30832 ft | 497 kts | 35° |
| 2026-05-07 19:13 | 7.20866 | 109.50199 | 30833 ft | 497 kts | 36° |
| 2026-05-07 19:14 | 7.26479 | 109.54183 | 30834 ft | 497 kts | 36° |
| 2026-05-07 19:14 | 7.32136 | 109.58198 | 30832 ft | 497 kts | 35° |
| 2026-05-07 19:15 | 7.37785 | 109.62208 | 30833 ft | 497 kts | 35° |
| 2026-05-07 19:15 | 7.43440 | 109.66224 | 30833 ft | 497 kts | 35° |
| 2026-05-07 19:16 | 7.49099 | 109.70243 | 30834 ft | 497 kts | 35° |
| 2026-05-07 19:16 | 7.54755 | 109.74263 | 30834 ft | 498 kts | 35° |
| 2026-05-07 19:17 | 7.60411 | 109.78284 | 30854 ft | 497 kts | 35° |
| 2026-05-07 19:17 | 7.66069 | 109.82307 | 30865 ft | 497 kts | 35° |
| 2026-05-07 19:18 | 7.71727 | 109.86332 | 30856 ft | 498 kts | 35° |
| 2026-05-07 19:18 | 7.77388 | 109.90360 | 30862 ft | 498 kts | 35° |
| 2026-05-07 19:19 | 7.83050 | 109.94390 | 30860 ft | 498 kts | 35° |
| 2026-05-07 19:19 | 7.88709 | 109.98420 | 30867 ft | 498 kts | 35° |
| 2026-05-07 19:20 | 7.94347 | 110.02434 | 30863 ft | 498 kts | 35° |
| 2026-05-07 19:20 | 7.99998 | 110.06464 | 30860 ft | 497 kts | 35° |
| 2026-05-07 19:21 | 8.05651 | 110.10491 | 30862 ft | 497 kts | 35° |
| 2026-05-07 19:21 | 8.11296 | 110.14516 | 30856 ft | 496 kts | 35° |
| 2026-05-07 19:22 | 8.16930 | 110.18540 | 30863 ft | 496 kts | 35° |
| 2026-05-07 19:22 | 8.22571 | 110.22564 | 30858 ft | 496 kts | 35° |
| 2026-05-07 19:23 | 8.28202 | 110.26607 | 30860 ft | 496 kts | 36° |
| 2026-05-07 19:23 | 8.33822 | 110.30659 | 30864 ft | 497 kts | 36° |
| 2026-05-07 19:24 | 8.39455 | 110.34724 | 30862 ft | 498 kts | 36° |
| 2026-05-07 19:24 | 8.45094 | 110.38789 | 30862 ft | 498 kts | 36° |
| 2026-05-07 19:25 | 8.50736 | 110.42857 | 30860 ft | 498 kts | 36° |
| 2026-05-07 19:25 | 8.56369 | 110.46921 | 30862 ft | 498 kts | 36° |
| 2026-05-07 19:26 | 8.61970 | 110.50961 | 30859 ft | 497 kts | 36° |
| 2026-05-07 19:26 | 8.67600 | 110.55025 | 30860 ft | 497 kts | 36° |
| 2026-05-07 19:27 | 8.73227 | 110.59081 | 30860 ft | 496 kts | 36° |
| 2026-05-07 19:27 | 8.78843 | 110.63141 | 30863 ft | 496 kts | 36° |
| 2026-05-07 19:28 | 8.84458 | 110.67202 | 30862 ft | 496 kts | 36° |
| 2026-05-07 19:28 | 8.90080 | 110.71264 | 30862 ft | 497 kts | 36° |
| 2026-05-07 19:29 | 8.95703 | 110.75330 | 30862 ft | 497 kts | 36° |
| 2026-05-07 19:29 | 9.01326 | 110.79400 | 30858 ft | 497 kts | 36° |
| 2026-05-07 19:30 | 9.06915 | 110.83446 | 30863 ft | 497 kts | 36° |
| 2026-05-07 19:30 | 9.12532 | 110.87513 | 30860 ft | 496 kts | 35° |
| 2026-05-07 19:31 | 9.18148 | 110.91580 | 30863 ft | 496 kts | 36° |
| 2026-05-07 19:31 | 9.23767 | 110.95653 | 30859 ft | 496 kts | 36° |
| 2026-05-07 19:32 | 9.29384 | 110.99724 | 30864 ft | 497 kts | 35° |
| 2026-05-07 19:32 | 9.35003 | 111.03798 | 30861 ft | 497 kts | 36° |
| 2026-05-07 19:33 | 9.40624 | 111.07878 | 30860 ft | 497 kts | 35° |
| 2026-05-07 19:33 | 9.46242 | 111.11956 | 30860 ft | 497 kts | 36° |
| 2026-05-07 19:34 | 9.51855 | 111.16034 | 30864 ft | 497 kts | 35° |
| 2026-05-07 19:34 | 9.57432 | 111.20079 | 30858 ft | 496 kts | 35° |
| 2026-05-07 19:35 | 9.63042 | 111.24156 | 30863 ft | 496 kts | 35° |
| 2026-05-07 19:35 | 9.68647 | 111.28236 | 30862 ft | 496 kts | 36° |
| 2026-05-07 19:36 | 9.74261 | 111.32323 | 30860 ft | 496 kts | 35° |
| 2026-05-07 19:36 | 9.79871 | 111.36408 | 30855 ft | 497 kts | 35° |
| 2026-05-07 19:37 | 9.85482 | 111.40496 | 30865 ft | 496 kts | 35° |
| 2026-05-07 19:37 | 9.91093 | 111.44584 | 30865 ft | 497 kts | 35° |
| 2026-05-07 19:38 | 9.96707 | 111.48678 | 30868 ft | 497 kts | 35° |
| 2026-05-07 19:38 | 10.02327 | 111.52778 | 30870 ft | 497 kts | 35° |
| 2026-05-07 19:39 | 10.07945 | 111.56878 | 30869 ft | 497 kts | 35° |
| 2026-05-07 19:39 | 10.13558 | 111.60976 | 30867 ft | 497 kts | 35° |
| 2026-05-07 19:40 | 10.19176 | 111.65077 | 30871 ft | 497 kts | 35° |
| 2026-05-07 19:40 | 10.24788 | 111.69178 | 30877 ft | 497 kts | 35° |
| 2026-05-07 19:41 | 10.30368 | 111.73258 | 30869 ft | 497 kts | 35° |
| 2026-05-07 19:41 | 10.35982 | 111.77365 | 30868 ft | 497 kts | 35° |
| 2026-05-07 19:42 | 10.41589 | 111.81467 | 30870 ft | 497 kts | 35° |
| 2026-05-07 19:42 | 10.47228 | 111.85596 | 30868 ft | 496 kts | 35° |
| 2026-05-07 19:43 | 10.52798 | 111.89671 | 30866 ft | 496 kts | 35° |
| 2026-05-07 19:43 | 10.58397 | 111.93774 | 30876 ft | 496 kts | 35° |
| 2026-05-07 19:44 | 10.63998 | 111.97882 | 30867 ft | 496 kts | 35° |
| 2026-05-07 19:44 | 10.69600 | 112.01991 | 30866 ft | 497 kts | 35° |
| 2026-05-07 19:45 | 10.75203 | 112.06102 | 30875 ft | 497 kts | 35° |
| 2026-05-07 19:45 | 10.80804 | 112.10215 | 30872 ft | 497 kts | 35° |
| 2026-05-07 19:46 | 10.86409 | 112.14331 | 30875 ft | 497 kts | 35° |
| 2026-05-07 19:46 | 10.92015 | 112.18450 | 30868 ft | 497 kts | 35° |
| 2026-05-07 19:47 | 10.97626 | 112.22566 | 30860 ft | 497 kts | 35° |
| 2026-05-07 19:47 | 11.03244 | 112.26662 | 30857 ft | 497 kts | 35° |
| 2026-05-07 19:48 | 11.08866 | 112.30758 | 30861 ft | 497 kts | 35° |
| 2026-05-07 19:48 | 11.14481 | 112.34860 | 30861 ft | 497 kts | 35° |
| 2026-05-07 19:49 | 11.20106 | 112.38973 | 30860 ft | 498 kts | 35° |
| 2026-05-07 19:49 | 11.25732 | 112.43084 | 30860 ft | 497 kts | 35° |
| 2026-05-07 19:50 | 11.31318 | 112.47168 | 30860 ft | 497 kts | 35° |
| 2026-05-07 19:50 | 11.36928 | 112.51274 | 30860 ft | 497 kts | 35° |
| 2026-05-07 19:51 | 11.42542 | 112.55387 | 30860 ft | 496 kts | 35° |
| 2026-05-07 19:51 | 11.48151 | 112.59494 | 30859 ft | 496 kts | 35° |
| 2026-05-07 19:52 | 11.53747 | 112.63613 | 30862 ft | 496 kts | 35° |
| 2026-05-07 19:52 | 11.59349 | 112.67744 | 30861 ft | 497 kts | 35° |
| 2026-05-07 19:53 | 11.64950 | 112.71878 | 30863 ft | 497 kts | 35° |
| 2026-05-07 19:53 | 11.70554 | 112.76016 | 30860 ft | 497 kts | 35° |
| 2026-05-07 19:54 | 11.75217 | 112.79459 | 30862 ft | 498 kts | 35° |
| 2026-05-07 19:54 | 11.81771 | 112.84299 | 30860 ft | 497 kts | 35° |
| 2026-05-07 19:55 | 11.86441 | 112.87751 | 30861 ft | 497 kts | 35° |
| 2026-05-07 19:55 | 11.92049 | 112.91898 | 30859 ft | 497 kts | 35° |
| 2026-05-07 19:56 | 11.97638 | 112.96032 | 30860 ft | 497 kts | 35° |
| 2026-05-07 19:56 | 12.03245 | 113.00181 | 30859 ft | 496 kts | 35° |
| 2026-05-07 19:57 | 12.08838 | 113.04323 | 30865 ft | 497 kts | 35° |
| 2026-05-07 19:57 | 12.14427 | 113.08469 | 30872 ft | 496 kts | 35° |
| 2026-05-07 19:58 | 12.20013 | 113.12614 | 30868 ft | 496 kts | 35° |
| 2026-05-07 19:58 | 12.25602 | 113.16758 | 30879 ft | 496 kts | 35° |
| 2026-05-07 19:59 | 12.31189 | 113.20905 | 30869 ft | 496 kts | 35° |
| 2026-05-07 19:59 | 12.36778 | 113.25057 | 30867 ft | 496 kts | 35° |
| 2026-05-07 20:00 | 12.42365 | 113.29196 | 30870 ft | 496 kts | 35° |
| 2026-05-07 20:00 | 12.47951 | 113.33336 | 30873 ft | 496 kts | 35° |
| 2026-05-07 20:01 | 12.53538 | 113.37479 | 30869 ft | 496 kts | 35° |
| 2026-05-07 20:01 | 12.59133 | 113.41635 | 30873 ft | 496 kts | 35° |
| 2026-05-07 20:02 | 12.64718 | 113.45785 | 30872 ft | 496 kts | 35° |
| 2026-05-07 20:02 | 12.70307 | 113.49944 | 30870 ft | 497 kts | 35° |
| 2026-05-07 20:03 | 12.75903 | 113.54107 | 30868 ft | 497 kts | 35° |
| 2026-05-07 20:03 | 12.81502 | 113.58271 | 30870 ft | 497 kts | 35° |
| 2026-05-07 20:04 | 12.87098 | 113.62437 | 30874 ft | 497 kts | 35° |
| 2026-05-07 20:04 | 12.92650 | 113.66574 | 30872 ft | 497 kts | 35° |
| 2026-05-07 20:05 | 12.98239 | 113.70745 | 30875 ft | 497 kts | 35° |
| 2026-05-07 20:05 | 13.03827 | 113.74912 | 30878 ft | 496 kts | 35° |
| 2026-05-07 20:06 | 13.09410 | 113.79076 | 30874 ft | 496 kts | 35° |
| 2026-05-07 20:06 | 13.14989 | 113.83244 | 30868 ft | 496 kts | 35° |
| 2026-05-07 20:07 | 13.20568 | 113.87411 | 30872 ft | 496 kts | 35° |
| 2026-05-07 20:07 | 13.26150 | 113.91583 | 30875 ft | 496 kts | 35° |
| 2026-05-07 20:08 | 13.31731 | 113.95758 | 30873 ft | 496 kts | 35° |
| 2026-05-07 20:08 | 13.37313 | 113.99934 | 30875 ft | 496 kts | 35° |
| 2026-05-07 20:09 | 13.42855 | 114.04087 | 30869 ft | 497 kts | 36° |
| 2026-05-07 20:10 | 13.51230 | 114.10366 | 30870 ft | 496 kts | 36° |
| 2026-05-07 20:10 | 13.56809 | 114.14547 | 30868 ft | 496 kts | 35° |
| 2026-05-07 20:11 | 13.62384 | 114.18732 | 30873 ft | 497 kts | 36° |
| 2026-05-07 20:11 | 13.67963 | 114.22923 | 30870 ft | 496 kts | 35° |
| 2026-05-07 20:12 | 13.73543 | 114.27113 | 30874 ft | 497 kts | 36° |
| 2026-05-07 20:12 | 13.79118 | 114.31309 | 30868 ft | 496 kts | 36° |
| 2026-05-07 20:13 | 13.84693 | 114.35505 | 30869 ft | 496 kts | 36° |
| 2026-05-07 20:13 | 13.90260 | 114.39695 | 30869 ft | 496 kts | 36° |
| 2026-05-07 20:14 | 13.95789 | 114.43874 | 30872 ft | 496 kts | 37° |
| 2026-05-07 20:14 | 14.00847 | 114.48696 | 30873 ft | 496 kts | 46° |
| 2026-05-07 20:15 | 14.05555 | 114.53903 | 30874 ft | 497 kts | 46° |
| 2026-05-07 20:15 | 14.10274 | 114.59108 | 30878 ft | 497 kts | 46° |
| 2026-05-07 20:16 | 14.15013 | 114.64292 | 30879 ft | 497 kts | 46° |
| 2026-05-07 20:16 | 14.19763 | 114.69470 | 30877 ft | 497 kts | 46° |
| 2026-05-07 20:17 | 14.24518 | 114.74658 | 30876 ft | 497 kts | 46° |
| 2026-05-07 20:17 | 14.29271 | 114.79847 | 30881 ft | 498 kts | 46° |
| 2026-05-07 20:18 | 14.34017 | 114.85037 | 30879 ft | 498 kts | 46° |
| 2026-05-07 20:18 | 14.38764 | 114.90232 | 30878 ft | 497 kts | 46° |
| 2026-05-07 20:19 | 14.43510 | 114.95425 | 30877 ft | 497 kts | 46° |
| 2026-05-07 20:19 | 14.48248 | 115.00612 | 30877 ft | 497 kts | 46° |
| 2026-05-07 20:20 | 14.52989 | 115.05806 | 30882 ft | 497 kts | 46° |
| 2026-05-07 20:20 | 14.57695 | 115.10970 | 30880 ft | 497 kts | 46° |
| 2026-05-07 20:21 | 14.62431 | 115.16166 | 30888 ft | 497 kts | 46° |
| 2026-05-07 20:21 | 14.67168 | 115.21364 | 30881 ft | 497 kts | 46° |
| 2026-05-07 20:22 | 14.71901 | 115.26569 | 30897 ft | 497 kts | 46° |
| 2026-05-07 20:22 | 14.76632 | 115.31769 | 30896 ft | 497 kts | 46° |
| 2026-05-07 20:23 | 14.81365 | 115.36976 | 30875 ft | 497 kts | 46° |
| 2026-05-07 20:23 | 14.86097 | 115.42184 | 30896 ft | 497 kts | 46° |
| 2026-05-07 20:24 | 14.90828 | 115.47403 | 30902 ft | 497 kts | 46° |
| 2026-05-07 20:24 | 14.95559 | 115.52619 | 30899 ft | 497 kts | 46° |
| 2026-05-07 20:25 | 15.00284 | 115.57831 | 30897 ft | 497 kts | 46° |
| 2026-05-07 20:25 | 15.05012 | 115.63047 | 30900 ft | 497 kts | 46° |
| 2026-05-07 20:26 | 15.09736 | 115.68270 | 30898 ft | 496 kts | 46° |
| 2026-05-07 20:26 | 15.14455 | 115.73488 | 30900 ft | 496 kts | 46° |
| 2026-05-07 20:27 | 15.19166 | 115.78702 | 30898 ft | 496 kts | 46° |
| 2026-05-07 20:27 | 15.23881 | 115.83922 | 30899 ft | 496 kts | 46° |
| 2026-05-07 20:28 | 15.28599 | 115.89150 | 30877 ft | 497 kts | 46° |
| 2026-05-07 20:28 | 15.33280 | 115.94341 | 30875 ft | 497 kts | 46° |
| 2026-05-07 20:29 | 15.37996 | 115.99573 | 30880 ft | 497 kts | 46° |
| 2026-05-07 20:29 | 15.42715 | 116.04812 | 30883 ft | 497 kts | 46° |
| 2026-05-07 20:30 | 15.47430 | 116.10051 | 30877 ft | 497 kts | 46° |
| 2026-05-07 20:30 | 15.52146 | 116.15292 | 30882 ft | 497 kts | 46° |
| 2026-05-07 20:31 | 15.56856 | 116.20536 | 30880 ft | 497 kts | 46° |
| 2026-05-07 20:31 | 15.61565 | 116.25783 | 30880 ft | 497 kts | 46° |
| 2026-05-07 20:32 | 15.66272 | 116.31027 | 30880 ft | 497 kts | 46° |
| 2026-05-07 20:32 | 15.70980 | 116.36278 | 30883 ft | 497 kts | 46° |
| 2026-05-07 20:33 | 15.75682 | 116.41525 | 30877 ft | 496 kts | 46° |
| 2026-05-07 20:33 | 15.80358 | 116.46747 | 30881 ft | 496 kts | 46° |
| 2026-05-07 20:34 | 15.85060 | 116.52000 | 30878 ft | 496 kts | 46° |
| 2026-05-07 20:34 | 15.89755 | 116.57251 | 30881 ft | 496 kts | 46° |
| 2026-05-07 20:35 | 15.94451 | 116.62507 | 30879 ft | 496 kts | 46° |
| 2026-05-07 20:35 | 15.99146 | 116.67766 | 30877 ft | 496 kts | 46° |
| 2026-05-07 20:36 | 16.03841 | 116.73031 | 30880 ft | 496 kts | 46° |
| 2026-05-07 20:36 | 16.08537 | 116.78299 | 30878 ft | 496 kts | 46° |
| 2026-05-07 20:37 | 16.13234 | 116.83573 | 30879 ft | 497 kts | 46° |
| 2026-05-07 20:37 | 16.17902 | 116.88817 | 30880 ft | 497 kts | 46° |
| 2026-05-07 20:38 | 16.22600 | 116.94101 | 30880 ft | 498 kts | 46° |
| 2026-05-07 20:38 | 16.27300 | 116.99393 | 30880 ft | 498 kts | 46° |
| 2026-05-07 20:39 | 16.32007 | 117.04688 | 30877 ft | 498 kts | 46° |
| 2026-05-07 20:39 | 16.36707 | 117.09988 | 30882 ft | 498 kts | 46° |
| 2026-05-07 20:40 | 16.41409 | 117.15289 | 30876 ft | 498 kts | 46° |
| 2026-05-07 20:40 | 16.46111 | 117.20595 | 30881 ft | 498 kts | 46° |
| 2026-05-07 20:41 | 16.50806 | 117.25899 | 30882 ft | 498 kts | 46° |
| 2026-05-07 20:41 | 16.54711 | 117.30312 | 30883 ft | 498 kts | 46° |
| 2026-05-07 20:42 | 16.59401 | 117.35617 | 30876 ft | 498 kts | 46° |
| 2026-05-07 20:42 | 16.64088 | 117.40927 | 30881 ft | 498 kts | 46° |
| 2026-05-07 20:43 | 16.68776 | 117.46241 | 30879 ft | 498 kts | 46° |
| 2026-05-07 20:43 | 16.73471 | 117.51562 | 30881 ft | 498 kts | 46° |
| 2026-05-07 20:44 | 16.78160 | 117.56885 | 30877 ft | 499 kts | 46° |
| 2026-05-07 20:44 | 16.82840 | 117.62199 | 30882 ft | 499 kts | 46° |
| 2026-05-07 20:45 | 16.87533 | 117.67535 | 30882 ft | 498 kts | 46° |
| 2026-05-07 20:45 | 16.92212 | 117.72864 | 30880 ft | 498 kts | 47° |
| 2026-05-07 20:46 | 16.96900 | 117.78204 | 30878 ft | 498 kts | 47° |
| 2026-05-07 20:46 | 17.01582 | 117.83539 | 30877 ft | 498 kts | 47° |
| 2026-05-07 20:47 | 17.06265 | 117.88880 | 30878 ft | 499 kts | 47° |
| 2026-05-07 20:47 | 17.10956 | 117.94228 | 30882 ft | 498 kts | 47° |
| 2026-05-07 20:48 | 17.15632 | 117.99577 | 30900 ft | 498 kts | 47° |
| 2026-05-07 20:48 | 17.20285 | 118.04893 | 30887 ft | 499 kts | 47° |
| 2026-05-07 20:49 | 17.24972 | 118.10255 | 30880 ft | 499 kts | 47° |
| 2026-05-07 20:49 | 17.29655 | 118.15621 | 30878 ft | 500 kts | 47° |
| 2026-05-07 20:50 | 17.34340 | 118.20989 | 30876 ft | 499 kts | 47° |
| 2026-05-07 20:50 | 17.39024 | 118.26361 | 30879 ft | 499 kts | 47° |
| 2026-05-07 20:51 | 17.43705 | 118.31731 | 30877 ft | 499 kts | 47° |
| 2026-05-07 20:51 | 17.48383 | 118.37103 | 30880 ft | 499 kts | 47° |
| 2026-05-07 20:52 | 17.53064 | 118.42487 | 30879 ft | 499 kts | 47° |
| 2026-05-07 20:52 | 17.57734 | 118.47863 | 30877 ft | 499 kts | 47° |
| 2026-05-07 20:53 | 17.62402 | 118.53239 | 30877 ft | 499 kts | 47° |
| 2026-05-07 20:53 | 17.67069 | 118.58622 | 30882 ft | 499 kts | 47° |
| 2026-05-07 20:54 | 17.71743 | 118.64011 | 30879 ft | 499 kts | 47° |
| 2026-05-07 20:54 | 17.76380 | 118.69366 | 30877 ft | 499 kts | 47° |
| 2026-05-07 20:55 | 17.81047 | 118.74759 | 30880 ft | 499 kts | 47° |
| 2026-05-07 20:55 | 17.85714 | 118.80161 | 30872 ft | 499 kts | 47° |
| 2026-05-07 20:56 | 17.90378 | 118.85557 | 30869 ft | 499 kts | 47° |
| 2026-05-07 20:56 | 17.95039 | 118.90955 | 30869 ft | 499 kts | 47° |
| 2026-05-07 20:57 | 17.99702 | 118.96362 | 30873 ft | 499 kts | 47° |
| 2026-05-07 20:57 | 18.04363 | 119.01765 | 30869 ft | 499 kts | 47° |
| 2026-05-07 20:58 | 18.09023 | 119.07170 | 30874 ft | 499 kts | 47° |
| 2026-05-07 20:58 | 18.13683 | 119.12581 | 30872 ft | 500 kts | 47° |
| 2026-05-07 20:59 | 18.18346 | 119.18000 | 30867 ft | 499 kts | 47° |
| 2026-05-07 20:59 | 18.22971 | 119.23380 | 30863 ft | 499 kts | 47° |
| 2026-05-07 21:00 | 18.27654 | 119.28834 | 30860 ft | 499 kts | 47° |
| 2026-05-07 21:00 | 18.32281 | 119.34227 | 30860 ft | 500 kts | 47° |
| 2026-05-07 21:01 | 18.36938 | 119.39660 | 30862 ft | 500 kts | 47° |
| 2026-05-07 21:01 | 18.41591 | 119.45095 | 30858 ft | 499 kts | 47° |
| 2026-05-07 21:02 | 18.46245 | 119.50528 | 30858 ft | 499 kts | 47° |
| 2026-05-07 21:02 | 18.50892 | 119.55962 | 30859 ft | 499 kts | 47° |
| 2026-05-07 21:03 | 18.55539 | 119.61406 | 30862 ft | 500 kts | 47° |
| 2026-05-07 21:03 | 18.60191 | 119.66855 | 30862 ft | 499 kts | 47° |
| 2026-05-07 21:04 | 18.64834 | 119.72297 | 30863 ft | 499 kts | 47° |
| 2026-05-07 21:04 | 18.69474 | 119.77741 | 30865 ft | 499 kts | 47° |
| 2026-05-07 21:05 | 18.74114 | 119.83189 | 30863 ft | 499 kts | 47° |
| 2026-05-07 21:05 | 18.78748 | 119.88643 | 30861 ft | 499 kts | 47° |
| 2026-05-07 21:06 | 18.83377 | 119.94091 | 30861 ft | 499 kts | 47° |
| 2026-05-07 21:06 | 18.88008 | 119.99544 | 30862 ft | 499 kts | 47° |
| 2026-05-07 21:07 | 18.92613 | 120.04971 | 30859 ft | 499 kts | 47° |
| 2026-05-07 21:07 | 18.97278 | 120.10477 | 30860 ft | 500 kts | 47° |
| 2026-05-07 21:08 | 19.01888 | 120.15922 | 30863 ft | 500 kts | 47° |
| 2026-05-07 21:08 | 19.06511 | 120.21388 | 30854 ft | 497 kts | 47° |
| 2026-05-07 21:09 | 19.11134 | 120.26856 | 30867 ft | 500 kts | 47° |
| 2026-05-07 21:09 | 19.15791 | 120.32372 | 30879 ft | 503 kts | 47° |
| 2026-05-07 21:10 | 19.20462 | 120.37910 | 30870 ft | 505 kts | 47° |
| 2026-05-07 21:10 | 19.25134 | 120.43454 | 30867 ft | 505 kts | 47° |
| 2026-05-07 21:11 | 19.29797 | 120.48992 | 30868 ft | 503 kts | 47° |
| 2026-05-07 21:11 | 19.36760 | 120.57270 | 30872 ft | 500 kts | 47° |
| 2026-05-07 21:12 | 19.41355 | 120.62744 | 30871 ft | 499 kts | 47° |
| 2026-05-07 21:12 | 19.45994 | 120.68274 | 30872 ft | 498 kts | 47° |
| 2026-05-07 21:13 | 19.50568 | 120.73730 | 30874 ft | 498 kts | 47° |
| 2026-05-07 21:13 | 19.55165 | 120.79221 | 30879 ft | 498 kts | 47° |
| 2026-05-07 21:14 | 19.59771 | 120.84729 | 30880 ft | 499 kts | 47° |
| 2026-05-07 21:14 | 19.64384 | 120.90249 | 30884 ft | 500 kts | 47° |
| 2026-05-07 21:15 | 19.69001 | 120.95782 | 30885 ft | 501 kts | 47° |
| 2026-05-07 21:15 | 19.73623 | 121.01326 | 30878 ft | 501 kts | 47° |
| 2026-05-07 21:16 | 19.78218 | 121.06840 | 30882 ft | 501 kts | 47° |
| 2026-05-07 21:16 | 19.82838 | 121.12395 | 30874 ft | 502 kts | 47° |
| 2026-05-07 21:17 | 19.87456 | 121.17949 | 30867 ft | 501 kts | 47° |
| 2026-05-07 21:17 | 19.92067 | 121.23496 | 30880 ft | 500 kts | 47° |
| 2026-05-07 21:18 | 19.96672 | 121.29044 | 30882 ft | 500 kts | 47° |
| 2026-05-07 21:18 | 20.01240 | 121.34554 | 30884 ft | 500 kts | 47° |
| 2026-05-07 21:19 | 20.05833 | 121.40105 | 30877 ft | 500 kts | 47° |
| 2026-05-07 21:19 | 20.10433 | 121.45657 | 30879 ft | 500 kts | 47° |
| 2026-05-07 21:20 | 20.15021 | 121.51209 | 30880 ft | 500 kts | 47° |
| 2026-05-07 21:20 | 20.19613 | 121.56772 | 30898 ft | 500 kts | 47° |
| 2026-05-07 21:21 | 20.24203 | 121.62328 | 30896 ft | 500 kts | 47° |
| 2026-05-07 21:21 | 20.28796 | 121.67898 | 30899 ft | 500 kts | 48° |
| 2026-05-07 21:22 | 20.33386 | 121.73475 | 30900 ft | 500 kts | 48° |
| 2026-05-07 21:22 | 20.37978 | 121.79059 | 30909 ft | 501 kts | 48° |
| 2026-05-07 21:23 | 20.42537 | 121.84610 | 30914 ft | 501 kts | 48° |
| 2026-05-07 21:23 | 20.47130 | 121.90199 | 30917 ft | 501 kts | 48° |
| 2026-05-07 21:24 | 20.51716 | 121.95794 | 30918 ft | 501 kts | 48° |
| 2026-05-07 21:24 | 20.56302 | 122.01387 | 30916 ft | 500 kts | 48° |
| 2026-05-07 21:25 | 20.60881 | 122.06978 | 30916 ft | 500 kts | 48° |
| 2026-05-07 21:25 | 20.65460 | 122.12574 | 30916 ft | 500 kts | 48° |
| 2026-05-07 21:26 | 20.70034 | 122.18176 | 30917 ft | 500 kts | 48° |
| 2026-05-07 21:26 | 20.74613 | 122.23784 | 30916 ft | 501 kts | 48° |
| 2026-05-07 21:27 | 20.79191 | 122.29404 | 30917 ft | 501 kts | 48° |
| 2026-05-07 21:27 | 20.83773 | 122.35030 | 30926 ft | 502 kts | 48° |
| 2026-05-07 21:28 | 20.88355 | 122.40659 | 30928 ft | 502 kts | 48° |
| 2026-05-07 21:28 | 20.92912 | 122.46266 | 30925 ft | 502 kts | 48° |
| 2026-05-07 21:29 | 20.97501 | 122.51899 | 30927 ft | 502 kts | 46° |
| 2026-05-07 21:29 | 21.02661 | 122.56907 | 30923 ft | 500 kts | 35° |
| 2026-05-07 21:30 | 21.08467 | 122.60977 | 30929 ft | 499 kts | 31° |
| 2026-05-07 21:30 | 21.14327 | 122.64981 | 30928 ft | 499 kts | 31° |
| 2026-05-07 21:31 | 21.19189 | 122.68337 | 30929 ft | 500 kts | 32° |
| 2026-05-07 21:31 | 21.26015 | 122.73087 | 30926 ft | 501 kts | 32° |
| 2026-05-07 21:32 | 21.30877 | 122.76479 | 30925 ft | 501 kts | 32° |
| 2026-05-07 21:32 | 21.36717 | 122.80560 | 30922 ft | 501 kts | 32° |
| 2026-05-07 21:33 | 21.42561 | 122.84645 | 30925 ft | 501 kts | 32° |
| 2026-05-07 21:33 | 21.48399 | 122.88724 | 30922 ft | 501 kts | 32° |
| 2026-05-07 21:34 | 21.54233 | 122.92807 | 30922 ft | 500 kts | 32° |
| 2026-05-07 21:34 | 21.60065 | 122.96894 | 30928 ft | 500 kts | 32° |
| 2026-05-07 21:35 | 21.65895 | 123.00982 | 30926 ft | 500 kts | 32° |
| 2026-05-07 21:35 | 21.71688 | 123.05049 | 30927 ft | 500 kts | 32° |
| 2026-05-07 21:36 | 21.77512 | 123.09142 | 30932 ft | 500 kts | 32° |
| 2026-05-07 21:36 | 21.83343 | 123.13244 | 30934 ft | 500 kts | 32° |
| 2026-05-07 21:37 | 21.89172 | 123.17348 | 30937 ft | 501 kts | 32° |
| 2026-05-07 21:37 | 21.95007 | 123.21459 | 30933 ft | 501 kts | 32° |
| 2026-05-07 21:38 | 22.00837 | 123.25572 | 30935 ft | 501 kts | 32° |
| 2026-05-07 21:38 | 22.06665 | 123.29689 | 30933 ft | 501 kts | 32° |
| 2026-05-07 21:39 | 22.12498 | 123.33809 | 30933 ft | 501 kts | 32° |
| 2026-05-07 21:39 | 22.18332 | 123.37941 | 30938 ft | 502 kts | 32° |
| 2026-05-07 21:40 | 22.24168 | 123.42076 | 30937 ft | 502 kts | 32° |
| 2026-05-07 21:40 | 22.30008 | 123.46217 | 30938 ft | 503 kts | 32° |
| 2026-05-07 21:41 | 22.35852 | 123.50364 | 30936 ft | 502 kts | 32° |
| 2026-05-07 21:41 | 22.41695 | 123.54515 | 30936 ft | 502 kts | 32° |
| 2026-05-07 21:42 | 22.47528 | 123.58662 | 30932 ft | 502 kts | 32° |
| 2026-05-07 21:42 | 22.53358 | 123.62816 | 30934 ft | 502 kts | 32° |
| 2026-05-07 21:43 | 22.59189 | 123.66972 | 30937 ft | 502 kts | 32° |
| 2026-05-07 21:43 | 22.65024 | 123.71136 | 30936 ft | 502 kts | 32° |
| 2026-05-07 21:44 | 22.70816 | 123.75271 | 30937 ft | 502 kts | 32° |
| 2026-05-07 21:44 | 22.76649 | 123.79442 | 30935 ft | 502 kts | 32° |
| 2026-05-07 21:45 | 22.82517 | 123.83643 | 30935 ft | 503 kts | 32° |
| 2026-05-07 21:45 | 22.88313 | 123.87806 | 30937 ft | 503 kts | 32° |
| 2026-05-07 21:46 | 22.94146 | 123.91999 | 30937 ft | 503 kts | 32° |
| 2026-05-07 21:46 | 22.99986 | 123.96200 | 30936 ft | 503 kts | 32° |
| 2026-05-07 21:47 | 23.05804 | 124.00447 | 30935 ft | 504 kts | 33° |
| 2026-05-07 21:47 | 23.11604 | 124.04744 | 30934 ft | 504 kts | 33° |
| 2026-05-07 21:48 | 23.17364 | 124.09004 | 30938 ft | 504 kts | 33° |
| 2026-05-07 21:48 | 23.23171 | 124.13295 | 30931 ft | 505 kts | 33° |
| 2026-05-07 21:49 | 23.28977 | 124.17588 | 30932 ft | 505 kts | 33° |
| 2026-05-07 21:49 | 23.34669 | 124.22056 | 30931 ft | 506 kts | 39° |
| 2026-05-07 21:50 | 23.39626 | 124.27504 | 30948 ft | 507 kts | 48° |
| 2026-05-07 21:50 | 23.44231 | 124.33332 | 30934 ft | 508 kts | 48° |
| 2026-05-07 21:51 | 23.48856 | 124.39167 | 30932 ft | 509 kts | 48° |
| 2026-05-07 21:51 | 23.53504 | 124.44982 | 30933 ft | 509 kts | 47° |
| 2026-05-07 21:52 | 23.58161 | 124.50794 | 30934 ft | 508 kts | 47° |
| 2026-05-07 21:52 | 23.62814 | 124.56603 | 30933 ft | 509 kts | 47° |
| 2026-05-07 21:53 | 23.67469 | 124.62421 | 30934 ft | 509 kts | 47° |
| 2026-05-07 21:53 | 23.72115 | 124.68243 | 30936 ft | 509 kts | 47° |
| 2026-05-07 21:54 | 23.76761 | 124.74068 | 30939 ft | 509 kts | 47° |
| 2026-05-07 21:54 | 23.81405 | 124.79899 | 30948 ft | 509 kts | 48° |
| 2026-05-07 21:55 | 23.86047 | 124.85732 | 30953 ft | 508 kts | 48° |
| 2026-05-07 21:55 | 23.90674 | 124.91558 | 30956 ft | 507 kts | 48° |
| 2026-05-07 21:56 | 23.95303 | 124.97388 | 30953 ft | 507 kts | 48° |
| 2026-05-07 21:56 | 23.99925 | 125.03217 | 30954 ft | 507 kts | 48° |
| 2026-05-07 21:57 | 24.04547 | 125.09058 | 30955 ft | 508 kts | 48° |
| 2026-05-07 21:57 | 24.09170 | 125.14903 | 30955 ft | 509 kts | 48° |
| 2026-05-07 21:58 | 24.13802 | 125.20771 | 30956 ft | 509 kts | 48° |
| 2026-05-07 21:58 | 24.18407 | 125.26605 | 31014 ft | 513 kts | 48° |
| 2026-05-07 21:59 | 24.20741 | 125.29564 | 31284 ft | 513 kts | 48° |
| 2026-05-07 21:59 | 24.23068 | 125.32519 | 31743 ft | 510 kts | 48° |
| 2026-05-07 21:59 | 24.25376 | 125.35451 | 32184 ft | 507 kts | 48° |
| 2026-05-07 21:59 | 24.27675 | 125.38375 | 32577 ft | 505 kts | 48° |
| 2026-05-07 22:00 | 24.29972 | 125.41292 | 32878 ft | 505 kts | 48° |
| 2026-05-07 22:00 | 24.32274 | 125.44221 | 32924 ft | 507 kts | 48° |
| 2026-05-07 22:00 | 24.36876 | 125.50081 | 32954 ft | 506 kts | 48° |
| 2026-05-07 22:01 | 24.41451 | 125.55921 | 32959 ft | 503 kts | 48° |
| 2026-05-07 22:01 | 24.46010 | 125.61741 | 32962 ft | 502 kts | 48° |
| 2026-05-07 22:02 | 24.50553 | 125.67547 | 32968 ft | 501 kts | 48° |
| 2026-05-07 22:02 | 24.55069 | 125.73327 | 32966 ft | 502 kts | 48° |
| 2026-05-07 22:03 | 24.59617 | 125.79155 | 32967 ft | 503 kts | 48° |
| 2026-05-07 22:03 | 24.64180 | 125.85012 | 32964 ft | 504 kts | 48° |
| 2026-05-07 22:04 | 24.68750 | 125.90879 | 32967 ft | 505 kts | 48° |
| 2026-05-07 22:04 | 24.73322 | 125.96758 | 32964 ft | 506 kts | 48° |
| 2026-05-07 22:05 | 24.77873 | 126.02619 | 32971 ft | 506 kts | 48° |
| 2026-05-07 22:05 | 24.82442 | 126.08514 | 32969 ft | 506 kts | 48° |
| 2026-05-07 22:06 | 24.87011 | 126.14413 | 32968 ft | 506 kts | 48° |
| 2026-05-07 22:06 | 24.91577 | 126.20311 | 32971 ft | 506 kts | 48° |
| 2026-05-07 22:07 | 24.96143 | 126.26222 | 32974 ft | 506 kts | 48° |
| 2026-05-07 22:07 | 25.00706 | 126.32132 | 32977 ft | 506 kts | 48° |
| 2026-05-07 22:08 | 25.05266 | 126.38049 | 32971 ft | 506 kts | 48° |
| 2026-05-07 22:08 | 25.09820 | 126.43956 | 32966 ft | 506 kts | 48° |
| 2026-05-07 22:09 | 25.14365 | 126.49875 | 32977 ft | 505 kts | 48° |
| 2026-05-07 22:09 | 25.18913 | 126.55804 | 32974 ft | 505 kts | 48° |
| 2026-05-07 22:10 | 25.23427 | 126.61691 | 32975 ft | 505 kts | 48° |
| 2026-05-07 22:10 | 25.27970 | 126.67623 | 32981 ft | 506 kts | 48° |
| 2026-05-07 22:11 | 25.32514 | 126.73559 | 32996 ft | 505 kts | 48° |
| 2026-05-07 22:11 | 25.37052 | 126.79502 | 32997 ft | 506 kts | 48° |
| 2026-05-07 22:12 | 25.41594 | 126.85455 | 32997 ft | 507 kts | 48° |
| 2026-05-07 22:12 | 25.46144 | 126.91425 | 32979 ft | 507 kts | 49° |
| 2026-05-07 22:13 | 25.50693 | 126.97405 | 32979 ft | 507 kts | 49° |
| 2026-05-07 22:13 | 25.55235 | 127.03384 | 32999 ft | 507 kts | 49° |
| 2026-05-07 22:14 | 25.59752 | 127.09330 | 32984 ft | 507 kts | 49° |
| 2026-05-07 22:14 | 25.64378 | 127.15218 | 32998 ft | 506 kts | 46° |
| 2026-05-07 22:15 | 25.69077 | 127.21016 | 32996 ft | 505 kts | 46° |
| 2026-05-07 22:15 | 25.73763 | 127.26824 | 32984 ft | 505 kts | 47° |
| 2026-05-07 22:16 | 25.78426 | 127.32652 | 32985 ft | 505 kts | 47° |
| 2026-05-07 22:16 | 25.83077 | 127.38490 | 32998 ft | 505 kts | 47° |
| 2026-05-07 22:17 | 25.87732 | 127.44333 | 32997 ft | 505 kts | 47° |
| 2026-05-07 22:17 | 25.92362 | 127.50151 | 32982 ft | 506 kts | 47° |
| 2026-05-07 22:18 | 25.99350 | 127.58948 | 32994 ft | 506 kts | 47° |
| 2026-05-07 22:19 | 26.03221 | 127.63826 | 32982 ft | 506 kts | 47° |
| 2026-05-07 22:19 | 26.07875 | 127.69695 | 33001 ft | 506 kts | 47° |
| 2026-05-07 22:20 | 26.12527 | 127.75578 | 32986 ft | 507 kts | 47° |
| 2026-05-07 22:20 | 26.17311 | 127.81325 | 32999 ft | 505 kts | 40° |
| 2026-05-07 22:21 | 26.22672 | 127.86349 | 33007 ft | 503 kts | 37° |
| 2026-05-07 22:21 | 26.28083 | 127.91313 | 33010 ft | 503 kts | 38° |
| 2026-05-07 22:22 | 26.33471 | 127.96302 | 33001 ft | 504 kts | 38° |
| 2026-05-07 22:22 | 26.38843 | 128.01321 | 33001 ft | 504 kts | 38° |
| 2026-05-07 22:23 | 26.44208 | 128.06356 | 33010 ft | 504 kts | 38° |
| 2026-05-07 22:23 | 26.49573 | 128.11394 | 33009 ft | 504 kts | 38° |
| 2026-05-07 22:24 | 26.54907 | 128.16403 | 33010 ft | 504 kts | 38° |
| 2026-05-07 22:24 | 26.60276 | 128.21453 | 33011 ft | 505 kts | 38° |
| 2026-05-07 22:25 | 26.65644 | 128.26507 | 33006 ft | 505 kts | 38° |
| 2026-05-07 22:25 | 26.71012 | 128.31569 | 33011 ft | 505 kts | 38° |
| 2026-05-07 22:26 | 26.76383 | 128.36642 | 33006 ft | 505 kts | 38° |
| 2026-05-07 22:26 | 26.81758 | 128.41725 | 33000 ft | 506 kts | 38° |
| 2026-05-07 22:27 | 26.87141 | 128.46817 | 33000 ft | 506 kts | 38° |
| 2026-05-07 22:27 | 26.92521 | 128.51915 | 33002 ft | 506 kts | 38° |
| 2026-05-07 22:28 | 26.97896 | 128.57017 | 33001 ft | 507 kts | 38° |
| 2026-05-07 22:28 | 27.03286 | 128.62136 | 33000 ft | 507 kts | 38° |
| 2026-05-07 22:29 | 27.08667 | 128.67259 | 32996 ft | 507 kts | 38° |
| 2026-05-07 22:29 | 27.14042 | 128.72379 | 32998 ft | 507 kts | 38° |
| 2026-05-07 22:30 | 27.19416 | 128.77508 | 32994 ft | 507 kts | 38° |
| 2026-05-07 22:30 | 27.24754 | 128.82606 | 32987 ft | 507 kts | 38° |
| 2026-05-07 22:31 | 27.30131 | 128.87748 | 32988 ft | 507 kts | 38° |
| 2026-05-07 22:31 | 27.35512 | 128.92901 | 32997 ft | 508 kts | 38° |
| 2026-05-07 22:32 | 27.40888 | 128.98059 | 32983 ft | 508 kts | 38° |
| 2026-05-07 22:32 | 27.46261 | 129.03220 | 32996 ft | 508 kts | 38° |
| 2026-05-07 22:33 | 27.51635 | 129.08398 | 32988 ft | 508 kts | 40° |
| 2026-05-07 22:33 | 27.56493 | 129.14192 | 33000 ft | 510 kts | 49° |
| 2026-05-07 22:34 | 27.60981 | 129.20393 | 32979 ft | 510 kts | 49° |
| 2026-05-07 22:34 | 27.65472 | 129.26595 | 32997 ft | 510 kts | 49° |
| 2026-05-07 22:35 | 27.69961 | 129.32741 | 32996 ft | 511 kts | 49° |
| 2026-05-07 22:35 | 27.74487 | 129.38918 | 32980 ft | 511 kts | 49° |
| 2026-05-07 22:36 | 27.79016 | 129.45099 | 32987 ft | 511 kts | 49° |
| 2026-05-07 22:36 | 27.83540 | 129.51291 | 32985 ft | 511 kts | 49° |
| 2026-05-07 22:37 | 27.88060 | 129.57488 | 32985 ft | 511 kts | 49° |
| 2026-05-07 22:37 | 27.92581 | 129.63694 | 32991 ft | 511 kts | 49° |
| 2026-05-07 22:38 | 27.97097 | 129.69904 | 32995 ft | 511 kts | 49° |
| 2026-05-07 22:38 | 28.01606 | 129.76116 | 32983 ft | 511 kts | 49° |
| 2026-05-07 22:39 | 28.06117 | 129.82329 | 32984 ft | 511 kts | 49° |
| 2026-05-07 22:39 | 28.10625 | 129.88555 | 32985 ft | 511 kts | 49° |
| 2026-05-07 22:40 | 28.15121 | 129.94780 | 32996 ft | 511 kts | 49° |
| 2026-05-07 22:40 | 28.19625 | 130.01013 | 32996 ft | 511 kts | 49° |
| 2026-05-07 22:41 | 28.24095 | 130.07211 | 32981 ft | 511 kts | 49° |
| 2026-05-07 22:41 | 28.28615 | 130.13491 | 32985 ft | 511 kts | 49° |
| 2026-05-07 22:42 | 28.33080 | 130.19697 | 32996 ft | 511 kts | 49° |
| 2026-05-07 22:42 | 28.37575 | 130.25961 | 32997 ft | 512 kts | 49° |
| 2026-05-07 22:43 | 28.42066 | 130.32228 | 32985 ft | 512 kts | 49° |
| 2026-05-07 22:43 | 28.46558 | 130.38506 | 32997 ft | 512 kts | 49° |
| 2026-05-07 22:44 | 28.51051 | 130.44791 | 32987 ft | 512 kts | 49° |
| 2026-05-07 22:44 | 28.55542 | 130.51088 | 32997 ft | 513 kts | 49° |
| 2026-05-07 22:45 | 28.60031 | 130.57389 | 32996 ft | 512 kts | 49° |
| 2026-05-07 22:45 | 28.64523 | 130.63699 | 32987 ft | 513 kts | 49° |
| 2026-05-07 22:46 | 28.69013 | 130.70019 | 32984 ft | 513 kts | 49° |
| 2026-05-07 22:46 | 28.73471 | 130.76307 | 32985 ft | 514 kts | 49° |
| 2026-05-07 22:47 | 28.77957 | 130.82641 | 32996 ft | 514 kts | 49° |
| 2026-05-07 22:47 | 28.82444 | 130.88989 | 32996 ft | 514 kts | 49° |
| 2026-05-07 22:48 | 28.86927 | 130.95338 | 32982 ft | 514 kts | 49° |
| 2026-05-07 22:48 | 28.91411 | 131.01697 | 32976 ft | 514 kts | 49° |
| 2026-05-07 22:49 | 28.95889 | 131.08061 | 32983 ft | 514 kts | 50° |
| 2026-05-07 22:49 | 29.00369 | 131.14434 | 32981 ft | 514 kts | 50° |
| 2026-05-07 22:50 | 29.04847 | 131.20810 | 32978 ft | 514 kts | 50° |
| 2026-05-07 22:50 | 29.09287 | 131.27150 | 32984 ft | 514 kts | 50° |
| 2026-05-07 22:51 | 29.13760 | 131.33549 | 32987 ft | 515 kts | 50° |
| 2026-05-07 22:51 | 29.18230 | 131.39948 | 32978 ft | 515 kts | 50° |
| 2026-05-07 22:52 | 29.22708 | 131.46367 | 32967 ft | 516 kts | 50° |
| 2026-05-07 22:52 | 29.27182 | 131.52793 | 32974 ft | 516 kts | 50° |
| 2026-05-07 22:53 | 29.31652 | 131.59220 | 32973 ft | 516 kts | 50° |
| 2026-05-07 22:53 | 29.36122 | 131.65661 | 32974 ft | 516 kts | 50° |
| 2026-05-07 22:54 | 29.40592 | 131.72111 | 32970 ft | 516 kts | 50° |
| 2026-05-07 22:54 | 29.45033 | 131.78529 | 32976 ft | 516 kts | 50° |
| 2026-05-07 22:55 | 29.49491 | 131.84985 | 32967 ft | 516 kts | 50° |
| 2026-05-07 22:55 | 29.53953 | 131.91452 | 32975 ft | 517 kts | 50° |
| 2026-05-07 22:56 | 29.58413 | 131.97927 | 32974 ft | 516 kts | 50° |
| 2026-05-07 22:56 | 29.62863 | 132.04404 | 32979 ft | 516 kts | 50° |
| 2026-05-07 22:57 | 29.67330 | 132.10869 | 32968 ft | 516 kts | 49° |
| 2026-05-07 22:57 | 29.71883 | 132.17244 | 32962 ft | 516 kts | 49° |
| 2026-05-07 22:58 | 29.76457 | 132.23604 | 32960 ft | 516 kts | 49° |
| 2026-05-07 22:58 | 29.81013 | 132.29978 | 32961 ft | 515 kts | 49° |
| 2026-05-07 22:59 | 29.85555 | 132.36366 | 32963 ft | 515 kts | 49° |
| 2026-05-07 22:59 | 29.90060 | 132.42718 | 32964 ft | 515 kts | 49° |
| 2026-05-07 23:00 | 29.94590 | 132.49116 | 32964 ft | 515 kts | 49° |
| 2026-05-07 23:00 | 29.99119 | 132.55526 | 32963 ft | 515 kts | 49° |
| 2026-05-07 23:01 | 30.03650 | 132.61941 | 32966 ft | 516 kts | 49° |
| 2026-05-07 23:01 | 30.08183 | 132.68369 | 32958 ft | 516 kts | 49° |
| 2026-05-07 23:02 | 30.12711 | 132.74800 | 32963 ft | 516 kts | 49° |
| 2026-05-07 23:02 | 30.17238 | 132.81241 | 32966 ft | 516 kts | 49° |
| 2026-05-07 23:03 | 30.21758 | 132.87684 | 32959 ft | 516 kts | 49° |
| 2026-05-07 23:03 | 30.26247 | 132.94092 | 32961 ft | 516 kts | 49° |
| 2026-05-07 23:04 | 30.30761 | 133.00546 | 32954 ft | 516 kts | 49° |
| 2026-05-07 23:04 | 30.35265 | 133.06998 | 32955 ft | 515 kts | 49° |
| 2026-05-07 23:05 | 30.39764 | 133.13454 | 32951 ft | 515 kts | 49° |
| 2026-05-07 23:05 | 30.44267 | 133.19921 | 32956 ft | 515 kts | 49° |
| 2026-05-07 23:06 | 30.48758 | 133.26383 | 32925 ft | 515 kts | 49° |
| 2026-05-07 23:06 | 30.53244 | 133.32850 | 32920 ft | 514 kts | 49° |
| 2026-05-07 23:07 | 30.56943 | 133.38193 | 32920 ft | 514 kts | 49° |
| 2026-05-07 23:07 | 30.62173 | 133.45758 | 32925 ft | 513 kts | 50° |
| 2026-05-07 23:08 | 30.66633 | 133.52219 | 32924 ft | 512 kts | 50° |
| 2026-05-07 23:08 | 30.71088 | 133.58682 | 32926 ft | 513 kts | 50° |
| 2026-05-07 23:09 | 30.75550 | 133.65168 | 32925 ft | 513 kts | 50° |
| 2026-05-07 23:09 | 30.79978 | 133.71615 | 32929 ft | 514 kts | 50° |
| 2026-05-07 23:10 | 30.84436 | 133.78115 | 32928 ft | 514 kts | 50° |
| 2026-05-07 23:10 | 30.88895 | 133.84624 | 32925 ft | 514 kts | 50° |
| 2026-05-07 23:11 | 30.92607 | 133.90054 | 32928 ft | 515 kts | 50° |
| 2026-05-07 23:11 | 30.97065 | 133.96588 | 32913 ft | 515 kts | 50° |
| 2026-05-07 23:12 | 31.01523 | 134.03124 | 32917 ft | 515 kts | 50° |
| 2026-05-07 23:12 | 31.05967 | 134.09656 | 32917 ft | 514 kts | 50° |
| 2026-05-07 23:13 | 31.10404 | 134.16192 | 32896 ft | 513 kts | 51° |
| 2026-05-07 23:13 | 31.14818 | 134.22708 | 32910 ft | 511 kts | 50° |
| 2026-05-07 23:14 | 31.19240 | 134.29244 | 32913 ft | 514 kts | 51° |
| 2026-05-07 23:14 | 31.23644 | 134.35803 | 32904 ft | 513 kts | 50° |
| 2026-05-07 23:15 | 31.28080 | 134.42346 | 32913 ft | 513 kts | 50° |
| 2026-05-07 23:15 | 31.32500 | 134.48899 | 32914 ft | 513 kts | 50° |
| 2026-05-07 23:16 | 31.36916 | 134.55460 | 32898 ft | 514 kts | 50° |
| 2026-05-07 23:16 | 31.41336 | 134.62039 | 32904 ft | 514 kts | 50° |
| 2026-05-07 23:17 | 31.45748 | 134.68632 | 32908 ft | 514 kts | 50° |
| 2026-05-07 23:17 | 31.50144 | 134.75206 | 32906 ft | 512 kts | 51° |
| 2026-05-07 23:18 | 31.54545 | 134.81795 | 32910 ft | 512 kts | 50° |
| 2026-05-07 23:18 | 31.58926 | 134.88366 | 32900 ft | 511 kts | 50° |
| 2026-05-07 23:19 | 31.63268 | 134.94893 | 32903 ft | 510 kts | 50° |
| 2026-05-07 23:19 | 31.67633 | 135.01464 | 32901 ft | 510 kts | 50° |
| 2026-05-07 23:20 | 31.72045 | 135.08000 | 32908 ft | 509 kts | 47° |
| 2026-05-07 23:20 | 31.76663 | 135.14328 | 32900 ft | 510 kts | 46° |
| 2026-05-07 23:21 | 31.81451 | 135.20467 | 32904 ft | 509 kts | 45° |
| 2026-05-07 23:21 | 31.86258 | 135.26606 | 32903 ft | 510 kts | 46° |
| 2026-05-07 23:22 | 31.91013 | 135.32787 | 32902 ft | 509 kts | 46° |
| 2026-05-07 23:22 | 31.95751 | 135.39002 | 32883 ft | 509 kts | 46° |
| 2026-05-07 23:23 | 32.00465 | 135.45203 | 32897 ft | 508 kts | 46° |
| 2026-05-07 23:23 | 32.05180 | 135.51412 | 32884 ft | 508 kts | 46° |
| 2026-05-07 23:24 | 32.09862 | 135.57574 | 32889 ft | 508 kts | 46° |
| 2026-05-07 23:24 | 32.14572 | 135.63788 | 32899 ft | 507 kts | 46° |
| 2026-05-07 23:25 | 32.19274 | 135.70005 | 32887 ft | 507 kts | 46° |
| 2026-05-07 23:25 | 32.23973 | 135.76227 | 32885 ft | 507 kts | 46° |
| 2026-05-07 23:26 | 32.28664 | 135.82450 | 32887 ft | 507 kts | 46° |
| 2026-05-07 23:26 | 32.33354 | 135.88680 | 32891 ft | 507 kts | 46° |
| 2026-05-07 23:27 | 32.40382 | 135.98037 | 32885 ft | 507 kts | 46° |
| 2026-05-07 23:27 | 32.44768 | 136.04594 | 32879 ft | 510 kts | 56° |
| 2026-05-07 23:28 | 32.48567 | 136.11677 | 32878 ft | 510 kts | 56° |
| 2026-05-07 23:28 | 32.52341 | 136.18787 | 32880 ft | 510 kts | 56° |
| 2026-05-07 23:29 | 32.56146 | 136.25876 | 32880 ft | 510 kts | 56° |
| 2026-05-07 23:29 | 32.59940 | 136.32910 | 32879 ft | 509 kts | 56° |
| 2026-05-07 23:30 | 32.63756 | 136.39993 | 32880 ft | 509 kts | 56° |
| 2026-05-07 23:30 | 32.67562 | 136.47082 | 32879 ft | 509 kts | 56° |
| 2026-05-07 23:31 | 32.71367 | 136.54178 | 32880 ft | 509 kts | 56° |
| 2026-05-07 23:31 | 32.75169 | 136.61281 | 32880 ft | 510 kts | 56° |
| 2026-05-07 23:32 | 32.78968 | 136.68401 | 32879 ft | 510 kts | 56° |
| 2026-05-07 23:32 | 32.82770 | 136.75533 | 32879 ft | 511 kts | 56° |
| 2026-05-07 23:33 | 32.86570 | 136.82680 | 32879 ft | 511 kts | 56° |
| 2026-05-07 23:33 | 32.90362 | 136.89823 | 32885 ft | 510 kts | 56° |
| 2026-05-07 23:34 | 32.94144 | 136.96959 | 32886 ft | 510 kts | 57° |
| 2026-05-07 23:34 | 32.97898 | 137.04057 | 32883 ft | 510 kts | 57° |
| 2026-05-07 23:35 | 33.01670 | 137.11202 | 32885 ft | 510 kts | 57° |
| 2026-05-07 23:35 | 33.05437 | 137.18356 | 32878 ft | 510 kts | 57° |
| 2026-05-07 23:36 | 33.09204 | 137.25520 | 32879 ft | 510 kts | 57° |
| 2026-05-07 23:36 | 33.12966 | 137.32689 | 32880 ft | 510 kts | 57° |
| 2026-05-07 23:37 | 33.16723 | 137.39863 | 32877 ft | 510 kts | 57° |
| 2026-05-07 23:37 | 33.20471 | 137.47048 | 32880 ft | 509 kts | 57° |
| 2026-05-07 23:38 | 33.24208 | 137.54235 | 32878 ft | 510 kts | 57° |
| 2026-05-07 23:38 | 33.27915 | 137.61384 | 32882 ft | 509 kts | 57° |
| 2026-05-07 23:39 | 33.31644 | 137.68591 | 32879 ft | 510 kts | 57° |
| 2026-05-07 23:39 | 33.35373 | 137.75806 | 32881 ft | 510 kts | 57° |
| 2026-05-07 23:40 | 33.39098 | 137.83034 | 32882 ft | 510 kts | 57° |
| 2026-05-07 23:40 | 33.42818 | 137.90266 | 32878 ft | 511 kts | 58° |
| 2026-05-07 23:41 | 33.46559 | 137.97494 | 32879 ft | 511 kts | 57° |
| 2026-05-07 23:41 | 33.50316 | 138.04717 | 32880 ft | 511 kts | 57° |
| 2026-05-07 23:42 | 33.54059 | 138.11951 | 32880 ft | 511 kts | 58° |
| 2026-05-07 23:42 | 33.57776 | 138.19213 | 32879 ft | 511 kts | 58° |
| 2026-05-07 23:43 | 33.61487 | 138.26485 | 32881 ft | 511 kts | 58° |
| 2026-05-07 23:43 | 33.65196 | 138.33757 | 32872 ft | 511 kts | 58° |
| 2026-05-07 23:44 | 33.68901 | 138.41043 | 32869 ft | 511 kts | 58° |
| 2026-05-07 23:44 | 33.72598 | 138.48321 | 32869 ft | 510 kts | 58° |
| 2026-05-07 23:45 | 33.76291 | 138.55606 | 32871 ft | 510 kts | 58° |
| 2026-05-07 23:45 | 33.79984 | 138.62894 | 32869 ft | 510 kts | 58° |
| 2026-05-07 23:46 | 33.83665 | 138.70184 | 32871 ft | 510 kts | 58° |
| 2026-05-07 23:46 | 33.87322 | 138.77436 | 32872 ft | 510 kts | 58° |
| 2026-05-07 23:47 | 33.90997 | 138.84746 | 32871 ft | 510 kts | 58° |
| 2026-05-07 23:47 | 33.94667 | 138.92059 | 32872 ft | 511 kts | 58° |
| 2026-05-07 23:48 | 33.98338 | 138.99389 | 32869 ft | 511 kts | 58° |
| 2026-05-07 23:48 | 34.02006 | 139.06720 | 32869 ft | 511 kts | 58° |
| 2026-05-07 23:49 | 34.05672 | 139.14062 | 32871 ft | 511 kts | 58° |
| 2026-05-07 23:49 | 34.09333 | 139.21422 | 32869 ft | 511 kts | 58° |
| 2026-05-07 23:50 | 34.12985 | 139.28777 | 32868 ft | 511 kts | 58° |
| 2026-05-07 23:50 | 34.16643 | 139.36143 | 32862 ft | 511 kts | 58° |
| 2026-05-07 23:51 | 34.20292 | 139.43504 | 32860 ft | 511 kts | 58° |
| 2026-05-07 23:51 | 34.23937 | 139.50874 | 32852 ft | 511 kts | 58° |
| 2026-05-07 23:52 | 34.27582 | 139.58265 | 32856 ft | 511 kts | 59° |
| 2026-05-07 23:52 | 34.31212 | 139.65642 | 32848 ft | 510 kts | 58° |
| 2026-05-07 23:53 | 34.34840 | 139.73031 | 32853 ft | 511 kts | 59° |
| 2026-05-07 23:53 | 34.38465 | 139.80422 | 32850 ft | 510 kts | 59° |
| 2026-05-07 23:54 | 34.42084 | 139.87819 | 32851 ft | 511 kts | 59° |
| 2026-05-07 23:54 | 34.45697 | 139.95224 | 32852 ft | 511 kts | 59° |
| 2026-05-07 23:55 | 34.49312 | 140.02641 | 32853 ft | 511 kts | 59° |
| 2026-05-07 23:55 | 34.52312 | 140.08810 | 32853 ft | 511 kts | 59° |
| 2026-05-07 23:56 | 34.55915 | 140.16238 | 32853 ft | 510 kts | 59° |
| 2026-05-07 23:56 | 34.59508 | 140.23660 | 32852 ft | 510 kts | 59° |
| 2026-05-07 23:57 | 34.63096 | 140.31084 | 32852 ft | 510 kts | 59° |
| 2026-05-07 23:57 | 34.66680 | 140.38521 | 32854 ft | 510 kts | 59° |
| 2026-05-07 23:58 | 34.70257 | 140.45959 | 32852 ft | 509 kts | 59° |
| 2026-05-07 23:58 | 34.73752 | 140.53468 | 32835 ft | 510 kts | 60° |
| 2026-05-07 23:59 | 34.77191 | 140.61009 | 32833 ft | 510 kts | 60° |
| 2026-05-07 23:59 | 34.80640 | 140.68563 | 32846 ft | 510 kts | 60° |
| 2026-05-08 00:00 | 34.84096 | 140.76106 | 32838 ft | 510 kts | 60° |
| 2026-05-08 00:00 | 34.87547 | 140.83649 | 32841 ft | 510 kts | 60° |
| 2026-05-08 00:01 | 34.90991 | 140.91196 | 32845 ft | 509 kts | 60° |
| 2026-05-08 00:01 | 34.94428 | 140.98748 | 32847 ft | 509 kts | 60° |
| 2026-05-08 00:02 | 34.97832 | 141.06251 | 32836 ft | 509 kts | 60° |
| 2026-05-08 00:02 | 35.01258 | 141.13809 | 32846 ft | 509 kts | 61° |
| 2026-05-08 00:03 | 35.04678 | 141.21372 | 32845 ft | 509 kts | 61° |
| 2026-05-08 00:03 | 35.08099 | 141.28948 | 32835 ft | 509 kts | 61° |
| 2026-05-08 00:04 | 35.11514 | 141.36532 | 32846 ft | 509 kts | 61° |
| 2026-05-08 00:04 | 35.14920 | 141.44121 | 32845 ft | 509 kts | 61° |
| 2026-05-08 00:05 | 35.18322 | 141.51713 | 32832 ft | 509 kts | 61° |
| 2026-05-08 00:05 | 35.21718 | 141.59307 | 32838 ft | 509 kts | 61° |
| 2026-05-08 00:06 | 35.25087 | 141.66851 | 32834 ft | 509 kts | 61° |
| 2026-05-08 00:06 | 35.28473 | 141.74461 | 32837 ft | 509 kts | 61° |
| 2026-05-08 00:07 | 35.31850 | 141.82071 | 32833 ft | 509 kts | 62° |
| 2026-05-08 00:07 | 35.35226 | 141.89688 | 32838 ft | 509 kts | 62° |
| 2026-05-08 00:08 | 35.38598 | 141.97307 | 32831 ft | 509 kts | 62° |
| 2026-05-08 00:08 | 35.41968 | 142.04943 | 32847 ft | 509 kts | 62° |
| 2026-05-08 00:09 | 35.45329 | 142.12575 | 32845 ft | 509 kts | 62° |
| 2026-05-08 00:09 | 35.48685 | 142.20222 | 32845 ft | 508 kts | 62° |
| 2026-05-08 00:10 | 35.52011 | 142.27812 | 32844 ft | 508 kts | 62° |
| 2026-05-08 00:10 | 35.55354 | 142.35461 | 32836 ft | 508 kts | 62° |
| 2026-05-08 00:11 | 35.58701 | 142.43122 | 32833 ft | 509 kts | 62° |
| 2026-05-08 00:11 | 35.62041 | 142.50801 | 32830 ft | 509 kts | 62° |
| 2026-05-08 00:12 | 35.65374 | 142.58479 | 32830 ft | 508 kts | 62° |
| 2026-05-08 00:12 | 35.68698 | 142.66151 | 32833 ft | 508 kts | 62° |
| 2026-05-08 00:13 | 35.71994 | 142.73779 | 32844 ft | 508 kts | 62° |
| 2026-05-08 00:13 | 35.75304 | 142.81454 | 32837 ft | 508 kts | 62° |
| 2026-05-08 00:14 | 35.78608 | 142.89133 | 32841 ft | 507 kts | 63° |
| 2026-05-08 00:14 | 35.81904 | 142.96815 | 32844 ft | 507 kts | 63° |
| 2026-05-08 00:15 | 35.85198 | 143.04508 | 32839 ft | 507 kts | 63° |
| 2026-05-08 00:15 | 35.88484 | 143.12196 | 32846 ft | 507 kts | 63° |
| 2026-05-08 00:16 | 35.91947 | 143.19770 | 32829 ft | 508 kts | 54° |
| 2026-05-08 00:16 | 35.96654 | 143.26237 | 32847 ft | 507 kts | 41° |
| 2026-05-08 00:17 | 36.02278 | 143.31474 | 32849 ft | 506 kts | 36° |
| 2026-05-08 00:17 | 36.07990 | 143.36605 | 32847 ft | 508 kts | 36° |
| 2026-05-08 00:18 | 36.13643 | 143.41758 | 32841 ft | 509 kts | 36° |
| 2026-05-08 00:18 | 36.19328 | 143.46994 | 32844 ft | 510 kts | 37° |
| 2026-05-08 00:19 | 36.25017 | 143.52260 | 32836 ft | 510 kts | 37° |
| 2026-05-08 00:19 | 36.30698 | 143.57516 | 32835 ft | 509 kts | 37° |
| 2026-05-08 00:20 | 36.36378 | 143.62789 | 32843 ft | 509 kts | 37° |
| 2026-05-08 00:20 | 36.42044 | 143.68056 | 32842 ft | 509 kts | 37° |
| 2026-05-08 00:21 | 36.47704 | 143.73320 | 32843 ft | 508 kts | 37° |
| 2026-05-08 00:21 | 36.53365 | 143.78598 | 32841 ft | 508 kts | 37° |
| 2026-05-08 00:22 | 36.59020 | 143.83880 | 32836 ft | 508 kts | 37° |
| 2026-05-08 00:22 | 36.64630 | 143.89138 | 32837 ft | 508 kts | 36° |
| 2026-05-08 00:23 | 36.70274 | 143.94432 | 32832 ft | 508 kts | 36° |
| 2026-05-08 00:23 | 36.75925 | 143.99741 | 32834 ft | 508 kts | 36° |
| 2026-05-08 00:24 | 36.81575 | 144.05056 | 32838 ft | 509 kts | 36° |
| 2026-05-08 00:24 | 36.87223 | 144.10391 | 32832 ft | 509 kts | 36° |
| 2026-05-08 00:25 | 36.92877 | 144.15731 | 32833 ft | 510 kts | 36° |
| 2026-05-08 00:25 | 36.98545 | 144.21098 | 32831 ft | 510 kts | 36° |
| 2026-05-08 00:26 | 37.04164 | 144.26426 | 32833 ft | 510 kts | 36° |
| 2026-05-08 00:26 | 37.09820 | 144.31804 | 32832 ft | 511 kts | 36° |
| 2026-05-08 00:27 | 37.15477 | 144.37200 | 32832 ft | 511 kts | 36° |
| 2026-05-08 00:27 | 37.21127 | 144.42598 | 32832 ft | 511 kts | 36° |
| 2026-05-08 00:28 | 37.26778 | 144.48009 | 32833 ft | 511 kts | 36° |
| 2026-05-08 00:28 | 37.32430 | 144.53428 | 32835 ft | 511 kts | 36° |
| 2026-05-08 00:29 | 37.38078 | 144.58860 | 32845 ft | 511 kts | 36° |
| 2026-05-08 00:29 | 37.43733 | 144.64303 | 32841 ft | 511 kts | 36° |
| 2026-05-08 00:30 | 37.48428 | 144.68830 | 32843 ft | 512 kts | 36° |
| 2026-05-08 00:30 | 37.55028 | 144.75209 | 32841 ft | 512 kts | 37° |
| 2026-05-08 00:31 | 37.60675 | 144.80677 | 32844 ft | 511 kts | 37° |
| 2026-05-08 00:31 | 37.66311 | 144.86148 | 32840 ft | 511 kts | 37° |
| 2026-05-08 00:32 | 37.71948 | 144.91625 | 32842 ft | 511 kts | 37° |
| 2026-05-08 00:32 | 37.77540 | 144.97073 | 32840 ft | 511 kts | 37° |
| 2026-05-08 00:33 | 37.83177 | 145.02576 | 32844 ft | 512 kts | 37° |
| 2026-05-08 00:33 | 37.88807 | 145.08084 | 32840 ft | 512 kts | 37° |
| 2026-05-08 00:34 | 37.94443 | 145.13609 | 32848 ft | 512 kts | 37° |
| 2026-05-08 00:34 | 38.00067 | 145.19131 | 32844 ft | 511 kts | 37° |
| 2026-05-08 00:35 | 38.05690 | 145.24662 | 32835 ft | 512 kts | 37° |
| 2026-05-08 00:35 | 38.11317 | 145.30218 | 32847 ft | 512 kts | 37° |
| 2026-05-08 00:36 | 38.16908 | 145.35743 | 32841 ft | 513 kts | 37° |
| 2026-05-08 00:36 | 38.22543 | 145.41316 | 32842 ft | 513 kts | 37° |
| 2026-05-08 00:37 | 38.28175 | 145.46902 | 32836 ft | 513 kts | 37° |
| 2026-05-08 00:38 | 38.36447 | 145.55579 | 32834 ft | 513 kts | 42° |
| 2026-05-08 00:38 | 38.41682 | 145.61778 | 32836 ft | 514 kts | 43° |
| 2026-05-08 00:39 | 38.46902 | 145.68001 | 32835 ft | 514 kts | 43° |
| 2026-05-08 00:39 | 38.52134 | 145.74209 | 32832 ft | 513 kts | 42° |
| 2026-05-08 00:40 | 38.57369 | 145.80411 | 32836 ft | 513 kts | 42° |
| 2026-05-08 00:40 | 38.62604 | 145.86617 | 32831 ft | 513 kts | 42° |
| 2026-05-08 00:41 | 38.67830 | 145.92833 | 32835 ft | 513 kts | 42° |
| 2026-05-08 00:41 | 38.73060 | 145.99058 | 32837 ft | 513 kts | 43° |
| 2026-05-08 00:42 | 38.78280 | 146.05291 | 32834 ft | 513 kts | 43° |
| 2026-05-08 00:42 | 38.83502 | 146.11541 | 32836 ft | 513 kts | 43° |
| 2026-05-08 00:43 | 38.88683 | 146.17755 | 32838 ft | 514 kts | 43° |
| 2026-05-08 00:43 | 38.93898 | 146.24024 | 32834 ft | 514 kts | 43° |
| 2026-05-08 00:44 | 38.99113 | 146.30301 | 32837 ft | 514 kts | 43° |
| 2026-05-08 00:44 | 39.04326 | 146.36591 | 32832 ft | 514 kts | 43° |
| 2026-05-08 00:45 | 39.09545 | 146.42904 | 32832 ft | 515 kts | 43° |
| 2026-05-08 00:45 | 39.14757 | 146.49221 | 32838 ft | 515 kts | 43° |
| 2026-05-08 00:46 | 39.19124 | 146.54521 | 32831 ft | 514 kts | 43° |
| 2026-05-08 00:46 | 39.24332 | 146.60858 | 32833 ft | 515 kts | 43° |
| 2026-05-08 00:47 | 39.29498 | 146.67158 | 32831 ft | 515 kts | 43° |
| 2026-05-08 00:47 | 39.34700 | 146.73514 | 32832 ft | 515 kts | 43° |
| 2026-05-08 00:48 | 39.39901 | 146.79883 | 32832 ft | 515 kts | 43° |
| 2026-05-08 00:48 | 39.45103 | 146.86265 | 32833 ft | 515 kts | 43° |
| 2026-05-08 00:49 | 39.50302 | 146.92663 | 32836 ft | 516 kts | 43° |
| 2026-05-08 00:49 | 39.55500 | 146.99069 | 32832 ft | 516 kts | 43° |
| 2026-05-08 00:50 | 39.60700 | 147.05488 | 32833 ft | 516 kts | 43° |
| 2026-05-08 00:50 | 39.65890 | 147.11918 | 32833 ft | 516 kts | 43° |
| 2026-05-08 00:51 | 39.71081 | 147.18350 | 32832 ft | 516 kts | 43° |
| 2026-05-08 00:51 | 39.76235 | 147.24754 | 32833 ft | 516 kts | 43° |
| 2026-05-08 00:52 | 39.81422 | 147.31222 | 32831 ft | 516 kts | 43° |
| 2026-05-08 00:52 | 39.86610 | 147.37702 | 32833 ft | 517 kts | 43° |
| 2026-05-08 00:53 | 39.91791 | 147.44188 | 32832 ft | 517 kts | 43° |
| 2026-05-08 00:53 | 39.96979 | 147.50695 | 32832 ft | 518 kts | 43° |
| 2026-05-08 00:54 | 40.02172 | 147.57220 | 32832 ft | 518 kts | 43° |
| 2026-05-08 00:54 | 40.07366 | 147.63762 | 32833 ft | 519 kts | 43° |
| 2026-05-08 00:55 | 40.12560 | 147.70321 | 32833 ft | 519 kts | 43° |
| 2026-05-08 00:55 | 40.17714 | 147.76845 | 32832 ft | 520 kts | 43° |
| 2026-05-08 00:56 | 40.22901 | 147.83424 | 32832 ft | 519 kts | 43° |
| 2026-05-08 00:56 | 40.28079 | 147.90006 | 32831 ft | 518 kts | 43° |
| 2026-05-08 00:57 | 40.33253 | 147.96594 | 32836 ft | 519 kts | 43° |
| 2026-05-08 00:57 | 40.38425 | 148.03201 | 32831 ft | 519 kts | 43° |
| 2026-05-08 00:58 | 40.43596 | 148.09823 | 32834 ft | 519 kts | 43° |
| 2026-05-08 00:58 | 40.48767 | 148.16459 | 32832 ft | 520 kts | 43° |
| 2026-05-08 00:59 | 40.53936 | 148.23102 | 32838 ft | 519 kts | 43° |
| 2026-05-08 00:59 | 40.59098 | 148.29752 | 32833 ft | 519 kts | 43° |
| 2026-05-08 01:00 | 40.64257 | 148.36414 | 32836 ft | 520 kts | 43° |
| 2026-05-08 01:00 | 40.69381 | 148.43047 | 32835 ft | 520 kts | 43° |
| 2026-05-08 01:01 | 40.74535 | 148.49733 | 32831 ft | 520 kts | 44° |
| 2026-05-08 01:01 | 40.79693 | 148.56442 | 32832 ft | 519 kts | 44° |
| 2026-05-08 01:02 | 40.84838 | 148.63151 | 32832 ft | 520 kts | 44° |
| 2026-05-08 01:02 | 40.89979 | 148.69867 | 32829 ft | 520 kts | 44° |
| 2026-05-08 01:03 | 40.95114 | 148.76591 | 32823 ft | 520 kts | 44° |
| 2026-05-08 01:03 | 41.00247 | 148.83330 | 32830 ft | 519 kts | 44° |
| 2026-05-08 01:04 | 41.05372 | 148.90073 | 32834 ft | 519 kts | 44° |
| 2026-05-08 01:04 | 41.10493 | 148.96826 | 32832 ft | 519 kts | 44° |
| 2026-05-08 01:05 | 41.15573 | 149.03550 | 32831 ft | 519 kts | 44° |
| 2026-05-08 01:05 | 41.20680 | 149.10326 | 32836 ft | 519 kts | 44° |
| 2026-05-08 01:06 | 41.25784 | 149.17118 | 32832 ft | 519 kts | 44° |
| 2026-05-08 01:06 | 41.30891 | 149.23917 | 32832 ft | 520 kts | 44° |
| 2026-05-08 01:07 | 41.35994 | 149.30733 | 32831 ft | 520 kts | 44° |
| 2026-05-08 01:07 | 41.41090 | 149.37563 | 32833 ft | 520 kts | 44° |
| 2026-05-08 01:08 | 41.46188 | 149.44407 | 32830 ft | 520 kts | 44° |
| 2026-05-08 01:08 | 41.51300 | 149.51286 | 33097 ft | 524 kts | 44° |
| 2026-05-08 01:08 | 41.53862 | 149.54740 | 33493 ft | 522 kts | 44° |
| 2026-05-08 01:09 | 41.56405 | 149.58172 | 33917 ft | 520 kts | 44° |
| 2026-05-08 01:09 | 41.58911 | 149.61557 | 34326 ft | 517 kts | 44° |
| 2026-05-08 01:09 | 41.61439 | 149.64971 | 34686 ft | 516 kts | 44° |
| 2026-05-08 01:10 | 41.66504 | 149.71841 | 34818 ft | 520 kts | 44° |
| 2026-05-08 01:10 | 41.71561 | 149.78716 | 34830 ft | 517 kts | 44° |
| 2026-05-08 01:11 | 41.76590 | 149.85565 | 34830 ft | 514 kts | 44° |
| 2026-05-08 01:11 | 41.81592 | 149.92386 | 34836 ft | 512 kts | 44° |
| 2026-05-08 01:12 | 41.86596 | 149.99232 | 34833 ft | 513 kts | 44° |
| 2026-05-08 01:12 | 41.91587 | 150.06081 | 34837 ft | 514 kts | 44° |
| 2026-05-08 01:13 | 41.96586 | 150.12951 | 34835 ft | 515 kts | 44° |
| 2026-05-08 01:13 | 42.01559 | 150.19805 | 34836 ft | 516 kts | 44° |
| 2026-05-08 01:14 | 42.06567 | 150.26727 | 34835 ft | 517 kts | 44° |
| 2026-05-08 01:14 | 42.11595 | 150.33684 | 34835 ft | 518 kts | 44° |
| 2026-05-08 01:15 | 42.16620 | 150.40655 | 34836 ft | 519 kts | 44° |
| 2026-05-08 01:15 | 42.21643 | 150.47647 | 34832 ft | 519 kts | 44° |
| 2026-05-08 01:16 | 42.26669 | 150.54659 | 34836 ft | 520 kts | 44° |
| 2026-05-08 01:16 | 42.31655 | 150.61628 | 34833 ft | 520 kts | 44° |
| 2026-05-08 01:17 | 42.36670 | 150.68657 | 34834 ft | 519 kts | 44° |
| 2026-05-08 01:17 | 42.41678 | 150.75695 | 34832 ft | 519 kts | 44° |
| 2026-05-08 01:18 | 42.46683 | 150.82745 | 34833 ft | 518 kts | 44° |
| 2026-05-08 01:18 | 42.51679 | 150.89802 | 34834 ft | 518 kts | 44° |
| 2026-05-08 01:19 | 42.56661 | 150.96852 | 34833 ft | 518 kts | 44° |
| 2026-05-08 01:19 | 42.61637 | 151.03911 | 34833 ft | 517 kts | 44° |
| 2026-05-08 01:20 | 42.66604 | 151.10977 | 34833 ft | 517 kts | 44° |
| 2026-05-08 01:20 | 42.71533 | 151.18006 | 34835 ft | 517 kts | 44° |
| 2026-05-08 01:21 | 42.76491 | 151.25092 | 34834 ft | 517 kts | 44° |
| 2026-05-08 01:21 | 42.81442 | 151.32191 | 34834 ft | 517 kts | 44° |
| 2026-05-08 01:22 | 42.86395 | 151.39306 | 34834 ft | 518 kts | 44° |
| 2026-05-08 01:22 | 42.91350 | 151.46438 | 34835 ft | 518 kts | 44° |
| 2026-05-08 01:23 | 42.96297 | 151.53581 | 34843 ft | 518 kts | 44° |
| 2026-05-08 01:23 | 43.01243 | 151.60745 | 34842 ft | 518 kts | 44° |
| 2026-05-08 01:24 | 43.06188 | 151.67919 | 34839 ft | 519 kts | 44° |
| 2026-05-08 01:24 | 43.11134 | 151.75114 | 34832 ft | 520 kts | 44° |
| 2026-05-08 01:25 | 43.16086 | 151.82335 | 34829 ft | 521 kts | 44° |
| 2026-05-08 01:25 | 43.21046 | 151.89588 | 34830 ft | 521 kts | 44° |
| 2026-05-08 01:26 | 43.26004 | 151.96849 | 34821 ft | 522 kts | 44° |
| 2026-05-08 01:26 | 43.30958 | 152.04134 | 34820 ft | 522 kts | 44° |
| 2026-05-08 01:27 | 43.35874 | 152.11375 | 34836 ft | 522 kts | 44° |
| 2026-05-08 01:27 | 43.40824 | 152.18693 | 34833 ft | 522 kts | 45° |
| 2026-05-08 01:28 | 43.45767 | 152.26016 | 34833 ft | 522 kts | 45° |
| 2026-05-08 01:28 | 43.50704 | 152.33344 | 34834 ft | 522 kts | 45° |
| 2026-05-08 01:29 | 43.55642 | 152.40693 | 34835 ft | 522 kts | 45° |
| 2026-05-08 01:29 | 43.60575 | 152.48057 | 34832 ft | 523 kts | 45° |
| 2026-05-08 01:30 | 43.65502 | 152.55427 | 34835 ft | 523 kts | 45° |
| 2026-05-08 01:30 | 43.70424 | 152.62809 | 34833 ft | 522 kts | 45° |
| 2026-05-08 01:31 | 43.75336 | 152.70206 | 34832 ft | 522 kts | 45° |
| 2026-05-08 01:31 | 43.80246 | 152.77610 | 34834 ft | 522 kts | 45° |
| 2026-05-08 01:32 | 43.85151 | 152.85023 | 34835 ft | 521 kts | 45° |
| 2026-05-08 01:32 | 43.90011 | 152.92390 | 34841 ft | 521 kts | 45° |
| 2026-05-08 01:33 | 43.94893 | 152.99813 | 34843 ft | 521 kts | 45° |
| 2026-05-08 01:33 | 43.99779 | 153.07260 | 34843 ft | 521 kts | 45° |
| 2026-05-08 01:34 | 44.04654 | 153.14708 | 34836 ft | 521 kts | 45° |
| 2026-05-08 01:34 | 44.09534 | 153.22190 | 34847 ft | 522 kts | 45° |
| 2026-05-08 01:35 | 44.14408 | 153.29678 | 34843 ft | 522 kts | 45° |
| 2026-05-08 01:35 | 44.19294 | 153.37199 | 34843 ft | 523 kts | 45° |
| 2026-05-08 01:36 | 44.24179 | 153.44745 | 34844 ft | 523 kts | 45° |
| 2026-05-08 01:36 | 44.28230 | 153.51017 | 34843 ft | 524 kts | 45° |
| 2026-05-08 01:37 | 44.33104 | 153.58580 | 34835 ft | 524 kts | 45° |
| 2026-05-08 01:37 | 44.37976 | 153.66160 | 34830 ft | 524 kts | 45° |
| 2026-05-08 01:38 | 44.43622 | 153.74978 | 34831 ft | 523 kts | 45° |
| 2026-05-08 01:38 | 44.47681 | 153.81330 | 34833 ft | 523 kts | 45° |
| 2026-05-08 01:39 | 44.52527 | 153.88928 | 34833 ft | 522 kts | 45° |
| 2026-05-08 01:39 | 44.57325 | 153.96478 | 34831 ft | 522 kts | 45° |
| 2026-05-08 01:40 | 44.62152 | 154.04087 | 34834 ft | 522 kts | 46° |
| 2026-05-08 01:40 | 44.66999 | 154.11758 | 34832 ft | 521 kts | 46° |
| 2026-05-08 01:41 | 44.71777 | 154.19337 | 34834 ft | 521 kts | 46° |
| 2026-05-08 01:41 | 44.76583 | 154.26979 | 34833 ft | 522 kts | 46° |
| 2026-05-08 01:42 | 44.81391 | 154.34651 | 34836 ft | 523 kts | 45° |
| 2026-05-08 01:42 | 44.86206 | 154.42345 | 34833 ft | 523 kts | 46° |
| 2026-05-08 01:43 | 44.90973 | 154.50121 | 34833 ft | 524 kts | 46° |
| 2026-05-08 01:43 | 44.95707 | 154.57950 | 34834 ft | 525 kts | 46° |
| 2026-05-08 01:44 | 45.00444 | 154.65797 | 34833 ft | 525 kts | 46° |
| 2026-05-08 01:44 | 45.05181 | 154.73653 | 34833 ft | 525 kts | 46° |
| 2026-05-08 01:45 | 45.09921 | 154.81523 | 34833 ft | 526 kts | 46° |
| 2026-05-08 01:45 | 45.14664 | 154.89417 | 34832 ft | 526 kts | 46° |
| 2026-05-08 01:46 | 45.19367 | 154.97272 | 34834 ft | 526 kts | 46° |
| 2026-05-08 01:46 | 45.24098 | 155.05197 | 34832 ft | 526 kts | 46° |
| 2026-05-08 01:47 | 45.28821 | 155.13128 | 34832 ft | 526 kts | 46° |
| 2026-05-08 01:47 | 45.33541 | 155.21080 | 34823 ft | 526 kts | 46° |
| 2026-05-08 01:48 | 45.40600 | 155.33009 | 34813 ft | 525 kts | 46° |
| 2026-05-08 01:48 | 45.45302 | 155.40979 | 34831 ft | 526 kts | 47° |
| 2026-05-08 01:49 | 45.50000 | 155.48975 | 34830 ft | 526 kts | 47° |
| 2026-05-08 01:49 | 45.54699 | 155.56994 | 34820 ft | 527 kts | 46° |
| 2026-05-08 01:50 | 45.59399 | 155.65039 | 34823 ft | 527 kts | 47° |
| 2026-05-08 01:50 | 45.64092 | 155.73092 | 34832 ft | 528 kts | 46° |
| 2026-05-08 01:51 | 45.68787 | 155.81163 | 34826 ft | 528 kts | 47° |
| 2026-05-08 01:51 | 45.73482 | 155.89262 | 34818 ft | 529 kts | 47° |
| 2026-05-08 01:52 | 45.78178 | 155.97391 | 34829 ft | 529 kts | 47° |
| 2026-05-08 01:52 | 45.82835 | 156.05475 | 34813 ft | 529 kts | 47° |
| 2026-05-08 01:53 | 45.87549 | 156.13682 | 34815 ft | 530 kts | 47° |
| 2026-05-08 01:53 | 45.92227 | 156.21849 | 34822 ft | 530 kts | 47° |
| 2026-05-08 01:54 | 45.96869 | 156.29978 | 34819 ft | 530 kts | 47° |
| 2026-05-08 01:54 | 46.01539 | 156.38177 | 34811 ft | 529 kts | 47° |
| 2026-05-08 01:55 | 46.06194 | 156.46385 | 34815 ft | 529 kts | 47° |
| 2026-05-08 01:55 | 46.10845 | 156.54601 | 34817 ft | 529 kts | 47° |
| 2026-05-08 01:56 | 46.15496 | 156.62835 | 34808 ft | 529 kts | 47° |
| 2026-05-08 01:56 | 46.20137 | 156.71085 | 34813 ft | 529 kts | 47° |
| 2026-05-08 01:57 | 46.24772 | 156.79350 | 34810 ft | 530 kts | 47° |
| 2026-05-08 01:57 | 46.29383 | 156.87587 | 34809 ft | 530 kts | 47° |
| 2026-05-08 01:58 | 46.34019 | 156.95899 | 34806 ft | 530 kts | 47° |
| 2026-05-08 01:58 | 46.38643 | 157.04214 | 34805 ft | 530 kts | 47° |
| 2026-05-08 01:59 | 46.43260 | 157.12547 | 34805 ft | 530 kts | 47° |
| 2026-05-08 01:59 | 46.47882 | 157.20900 | 34805 ft | 530 kts | 47° |
| 2026-05-08 02:00 | 46.52489 | 157.29264 | 34799 ft | 530 kts | 47° |
| 2026-05-08 02:00 | 46.57057 | 157.37585 | 34802 ft | 530 kts | 47° |
| 2026-05-08 02:01 | 46.61654 | 157.45975 | 34800 ft | 530 kts | 47° |
| 2026-05-08 02:01 | 46.66242 | 157.54377 | 34798 ft | 531 kts | 47° |
| 2026-05-08 02:02 | 46.70830 | 157.62805 | 34796 ft | 531 kts | 47° |
| 2026-05-08 02:02 | 46.75413 | 157.71242 | 34775 ft | 531 kts | 47° |
| 2026-05-08 02:03 | 46.79992 | 157.79707 | 34770 ft | 531 kts | 48° |
| 2026-05-08 02:03 | 46.84567 | 157.88190 | 34768 ft | 531 kts | 48° |
| 2026-05-08 02:04 | 46.89131 | 157.96677 | 34767 ft | 531 kts | 48° |
| 2026-05-08 02:04 | 46.93690 | 158.05180 | 34769 ft | 531 kts | 48° |
| 2026-05-08 02:05 | 46.98237 | 158.13682 | 34765 ft | 530 kts | 48° |
| 2026-05-08 02:05 | 47.02773 | 158.22191 | 34769 ft | 530 kts | 48° |
| 2026-05-08 02:06 | 47.07277 | 158.30678 | 34766 ft | 530 kts | 48° |
| 2026-05-08 02:06 | 47.11800 | 158.39223 | 34768 ft | 530 kts | 48° |
| 2026-05-08 02:07 | 47.16321 | 158.47781 | 34771 ft | 530 kts | 48° |
| 2026-05-08 02:07 | 47.20828 | 158.56344 | 34779 ft | 530 kts | 48° |
| 2026-05-08 02:08 | 47.25328 | 158.64923 | 34787 ft | 529 kts | 48° |
| 2026-05-08 02:08 | 47.29827 | 158.73514 | 34790 ft | 530 kts | 48° |
| 2026-05-08 02:09 | 47.34320 | 158.82134 | 34782 ft | 530 kts | 48° |
| 2026-05-08 02:09 | 47.38802 | 158.90769 | 34790 ft | 530 kts | 48° |
| 2026-05-08 02:10 | 47.43286 | 158.99421 | 34787 ft | 531 kts | 48° |
| 2026-05-08 02:10 | 47.47762 | 159.08086 | 34785 ft | 530 kts | 48° |
| 2026-05-08 02:11 | 47.52230 | 159.16769 | 34789 ft | 530 kts | 48° |
| 2026-05-08 02:11 | 47.56698 | 159.25472 | 34788 ft | 530 kts | 48° |
| 2026-05-08 02:12 | 47.61123 | 159.34116 | 34783 ft | 530 kts | 49° |
| 2026-05-08 02:12 | 47.65567 | 159.42835 | 34784 ft | 529 kts | 49° |
| 2026-05-08 02:13 | 47.70001 | 159.51556 | 34785 ft | 529 kts | 49° |
| 2026-05-08 02:13 | 47.74422 | 159.60281 | 34781 ft | 528 kts | 49° |
| 2026-05-08 02:14 | 47.78833 | 159.69012 | 34776 ft | 528 kts | 49° |
| 2026-05-08 02:14 | 47.83232 | 159.77752 | 34778 ft | 528 kts | 49° |
| 2026-05-08 02:15 | 47.87632 | 159.86518 | 34777 ft | 528 kts | 49° |
| 2026-05-08 02:15 | 47.92020 | 159.95287 | 34778 ft | 528 kts | 49° |
| 2026-05-08 02:16 | 47.96407 | 160.04087 | 34778 ft | 528 kts | 49° |
| 2026-05-08 02:16 | 48.00757 | 160.12838 | 34778 ft | 529 kts | 49° |
| 2026-05-08 02:17 | 48.05130 | 160.21666 | 34778 ft | 529 kts | 49° |
| 2026-05-08 02:17 | 48.09501 | 160.30518 | 34777 ft | 529 kts | 49° |
| 2026-05-08 02:18 | 48.13865 | 160.39382 | 34774 ft | 529 kts | 49° |
| 2026-05-08 02:18 | 48.18232 | 160.48283 | 34778 ft | 530 kts | 49° |
| 2026-05-08 02:19 | 48.22589 | 160.57196 | 34779 ft | 530 kts | 49° |
| 2026-05-08 02:19 | 48.26919 | 160.66077 | 34777 ft | 530 kts | 49° |
| 2026-05-08 02:20 | 48.31212 | 160.75093 | 34779 ft | 531 kts | 51° |
| 2026-05-08 02:20 | 48.35407 | 160.84244 | 34776 ft | 532 kts | 51° |
| 2026-05-08 02:21 | 48.39593 | 160.93431 | 34780 ft | 532 kts | 51° |
| 2026-05-08 02:21 | 48.43780 | 161.02605 | 34776 ft | 532 kts | 51° |
| 2026-05-08 02:22 | 48.47973 | 161.11787 | 34773 ft | 532 kts | 51° |
| 2026-05-08 02:22 | 48.52160 | 161.20972 | 34775 ft | 531 kts | 51° |
| 2026-05-08 02:23 | 48.54925 | 161.27065 | 34778 ft | 531 kts | 51° |
| 2026-05-08 02:23 | 48.60491 | 161.39383 | 34779 ft | 531 kts | 51° |
| 2026-05-08 02:24 | 48.64639 | 161.48598 | 34775 ft | 530 kts | 51° |
| 2026-05-08 02:24 | 48.68085 | 161.56280 | 34777 ft | 530 kts | 51° |
| 2026-05-08 02:25 | 48.72890 | 161.67014 | 34778 ft | 530 kts | 51° |
| 2026-05-08 02:25 | 48.76346 | 161.74759 | 34779 ft | 530 kts | 51° |
| 2026-05-08 02:26 | 48.80470 | 161.84033 | 34775 ft | 531 kts | 51° |
| 2026-05-08 02:26 | 48.84585 | 161.93333 | 34778 ft | 531 kts | 51° |
| 2026-05-08 02:27 | 48.88704 | 162.02666 | 34778 ft | 531 kts | 51° |
| 2026-05-08 02:27 | 48.92806 | 162.11993 | 34774 ft | 531 kts | 51° |
| 2026-05-08 02:28 | 48.96905 | 162.21345 | 34780 ft | 531 kts | 51° |
| 2026-05-08 02:28 | 49.00998 | 162.30711 | 34780 ft | 532 kts | 52° |
| 2026-05-08 02:29 | 49.05063 | 162.40050 | 34778 ft | 532 kts | 52° |
| 2026-05-08 02:29 | 49.09149 | 162.49466 | 34777 ft | 532 kts | 52° |
| 2026-05-08 02:30 | 49.13223 | 162.58891 | 34776 ft | 532 kts | 52° |
| 2026-05-08 02:30 | 49.17287 | 162.68334 | 34775 ft | 532 kts | 52° |
| 2026-05-08 02:31 | 49.21347 | 162.77790 | 34780 ft | 532 kts | 52° |
| 2026-05-08 02:31 | 49.25398 | 162.87262 | 34779 ft | 532 kts | 52° |
| 2026-05-08 02:32 | 49.29445 | 162.96749 | 34777 ft | 532 kts | 52° |
| 2026-05-08 02:32 | 49.33482 | 163.06262 | 34779 ft | 532 kts | 52° |
| 2026-05-08 02:33 | 49.37509 | 163.15778 | 34785 ft | 532 kts | 52° |
| 2026-05-08 02:33 | 49.41531 | 163.25315 | 34788 ft | 532 kts | 52° |
| 2026-05-08 02:34 | 49.45544 | 163.34869 | 34788 ft | 532 kts | 52° |
| 2026-05-08 02:34 | 49.49526 | 163.44385 | 34787 ft | 532 kts | 52° |
| 2026-05-08 02:35 | 49.53526 | 163.53971 | 34783 ft | 532 kts | 52° |
| 2026-05-08 02:35 | 49.57512 | 163.63566 | 34786 ft | 532 kts | 52° |
| 2026-05-08 02:36 | 49.61492 | 163.73180 | 34789 ft | 532 kts | 52° |
| 2026-05-08 02:36 | 49.65464 | 163.82805 | 34782 ft | 532 kts | 52° |
| 2026-05-08 02:37 | 49.69433 | 163.92457 | 34789 ft | 532 kts | 53° |
| 2026-05-08 02:37 | 49.73392 | 164.02125 | 34783 ft | 532 kts | 53° |
| 2026-05-08 02:38 | 49.77319 | 164.11745 | 34791 ft | 533 kts | 53° |
| 2026-05-08 02:38 | 49.81265 | 164.21464 | 34787 ft | 533 kts | 53° |
| 2026-05-08 02:39 | 49.85204 | 164.31185 | 34799 ft | 533 kts | 53° |
| 2026-05-08 02:39 | 49.89136 | 164.40921 | 34798 ft | 533 kts | 53° |
| 2026-05-08 02:40 | 49.93059 | 164.50676 | 34802 ft | 533 kts | 53° |
| 2026-05-08 02:40 | 49.96978 | 164.60462 | 34798 ft | 533 kts | 53° |
| 2026-05-08 02:41 | 50.00883 | 164.70249 | 34791 ft | 533 kts | 53° |
| 2026-05-08 02:41 | 50.04780 | 164.80040 | 34798 ft | 532 kts | 54° |
| 2026-05-08 02:42 | 50.08658 | 164.89826 | 34792 ft | 530 kts | 54° |
| 2026-05-08 02:42 | 50.12509 | 164.99605 | 34790 ft | 529 kts | 54° |
| 2026-05-08 02:43 | 50.16348 | 165.09354 | 34803 ft | 527 kts | 54° |
| 2026-05-08 02:43 | 50.19714 | 165.19452 | 34808 ft | 529 kts | 62° |
| 2026-05-08 02:44 | 50.22720 | 165.29947 | 34811 ft | 529 kts | 63° |
| 2026-05-08 02:44 | 50.25702 | 165.40466 | 34810 ft | 529 kts | 63° |
| 2026-05-08 02:45 | 50.28705 | 165.50975 | 34811 ft | 530 kts | 62° |
| 2026-05-08 02:45 | 50.31728 | 165.61503 | 34804 ft | 530 kts | 62° |
| 2026-05-08 02:46 | 50.34742 | 165.72040 | 34819 ft | 531 kts | 62° |
| 2026-05-08 02:46 | 50.37747 | 165.82598 | 34807 ft | 531 kts | 62° |
| 2026-05-08 02:47 | 50.40751 | 165.93200 | 34809 ft | 532 kts | 62° |
| 2026-05-08 02:47 | 50.43741 | 166.03806 | 34819 ft | 532 kts | 63° |
| 2026-05-08 02:48 | 50.46719 | 166.14427 | 34821 ft | 531 kts | 63° |
| 2026-05-08 02:48 | 50.49685 | 166.25046 | 34832 ft | 531 kts | 63° |
| 2026-05-08 02:49 | 50.52619 | 166.35602 | 34817 ft | 530 kts | 63° |
| 2026-05-08 02:49 | 50.55562 | 166.46228 | 34830 ft | 530 kts | 63° |
| 2026-05-08 02:50 | 50.58494 | 166.56859 | 34820 ft | 529 kts | 63° |
| 2026-05-08 02:50 | 50.61408 | 166.67478 | 34829 ft | 528 kts | 64° |
| 2026-05-08 02:51 | 50.64309 | 166.78093 | 34823 ft | 527 kts | 64° |
| 2026-05-08 02:51 | 50.67195 | 166.88721 | 34820 ft | 527 kts | 64° |
| 2026-05-08 02:52 | 50.70067 | 166.99337 | 34835 ft | 526 kts | 64° |
| 2026-05-08 02:52 | 50.72923 | 167.09947 | 34832 ft | 525 kts | 64° |
| 2026-05-08 02:53 | 50.75756 | 167.20500 | 34831 ft | 525 kts | 64° |
| 2026-05-08 02:53 | 50.78594 | 167.31131 | 34834 ft | 525 kts | 64° |
| 2026-05-08 02:54 | 50.81421 | 167.41767 | 34838 ft | 525 kts | 64° |
| 2026-05-08 02:54 | 50.84240 | 167.52432 | 34843 ft | 525 kts | 65° |
| 2026-05-08 02:55 | 50.88444 | 167.68424 | 34842 ft | 525 kts | 65° |
| 2026-05-08 02:56 | 50.91234 | 167.79095 | 34842 ft | 524 kts | 65° |
| 2026-05-08 02:56 | 50.94014 | 167.89782 | 34844 ft | 524 kts | 65° |
| 2026-05-08 02:57 | 50.96779 | 168.00477 | 34852 ft | 524 kts | 65° |
| 2026-05-08 02:57 | 50.99537 | 168.11171 | 34853 ft | 523 kts | 65° |
| 2026-05-08 02:58 | 51.02284 | 168.21870 | 34850 ft | 523 kts | 65° |
| 2026-05-08 02:58 | 51.04997 | 168.32502 | 34853 ft | 522 kts | 65° |
| 2026-05-08 02:59 | 51.07715 | 168.43198 | 34850 ft | 521 kts | 66° |
| 2026-05-08 02:59 | 51.10420 | 168.53900 | 34862 ft | 521 kts | 66° |
| 2026-05-08 03:00 | 51.13112 | 168.64596 | 34860 ft | 520 kts | 66° |
| 2026-05-08 03:00 | 51.15792 | 168.75296 | 34862 ft | 520 kts | 66° |
| 2026-05-08 03:01 | 51.18459 | 168.85999 | 34859 ft | 520 kts | 66° |
| 2026-05-08 03:01 | 51.21117 | 168.96702 | 34860 ft | 519 kts | 66° |
| 2026-05-08 03:02 | 51.23762 | 169.07413 | 34870 ft | 519 kts | 66° |
| 2026-05-08 03:02 | 51.26377 | 169.18060 | 34871 ft | 519 kts | 66° |
| 2026-05-08 03:03 | 51.29000 | 169.28795 | 34871 ft | 519 kts | 66° |
| 2026-05-08 03:03 | 51.31616 | 169.39544 | 34869 ft | 519 kts | 67° |
| 2026-05-08 03:04 | 51.34217 | 169.50290 | 34871 ft | 518 kts | 67° |
| 2026-05-08 03:04 | 51.36810 | 169.61057 | 34875 ft | 518 kts | 67° |
| 2026-05-08 03:05 | 51.39387 | 169.71815 | 34879 ft | 517 kts | 67° |
| 2026-05-08 03:05 | 51.41954 | 169.82576 | 34880 ft | 516 kts | 68° |
| 2026-05-08 03:06 | 51.44506 | 169.93331 | 34875 ft | 516 kts | 68° |
| 2026-05-08 03:06 | 51.47047 | 170.04082 | 34886 ft | 515 kts | 68° |
| 2026-05-08 03:07 | 51.49558 | 170.14760 | 34875 ft | 515 kts | 68° |
| 2026-05-08 03:07 | 51.52071 | 170.25509 | 34872 ft | 515 kts | 68° |
| 2026-05-08 03:08 | 51.54580 | 170.36295 | 34888 ft | 516 kts | 68° |
| 2026-05-08 03:08 | 51.57083 | 170.47110 | 34880 ft | 517 kts | 68° |
| 2026-05-08 03:09 | 51.59582 | 170.57959 | 34880 ft | 518 kts | 68° |
| 2026-05-08 03:09 | 51.62078 | 170.68852 | 34881 ft | 519 kts | 68° |
| 2026-05-08 03:10 | 51.64567 | 170.79769 | 34882 ft | 520 kts | 68° |
| 2026-05-08 03:10 | 51.67048 | 170.90709 | 34881 ft | 520 kts | 68° |
| 2026-05-08 03:11 | 51.69520 | 171.01666 | 34881 ft | 520 kts | 68° |
| 2026-05-08 03:11 | 51.71979 | 171.12633 | 34886 ft | 519 kts | 68° |
| 2026-05-08 03:12 | 51.74425 | 171.23587 | 34889 ft | 519 kts | 69° |
| 2026-05-08 03:12 | 51.76844 | 171.34480 | 34890 ft | 519 kts | 69° |
| 2026-05-08 03:13 | 51.79270 | 171.45451 | 34889 ft | 518 kts | 69° |
| 2026-05-08 03:13 | 51.81679 | 171.56418 | 34888 ft | 517 kts | 69° |
| 2026-05-08 03:14 | 51.84072 | 171.67373 | 34888 ft | 516 kts | 69° |
| 2026-05-08 03:14 | 51.86452 | 171.78313 | 34888 ft | 515 kts | 69° |
| 2026-05-08 03:15 | 51.88814 | 171.89231 | 34887 ft | 514 kts | 70° |
| 2026-05-08 03:15 | 51.90769 | 171.98322 | 34888 ft | 514 kts | 70° |
| 2026-05-08 03:16 | 51.93113 | 172.09259 | 34888 ft | 513 kts | 70° |
| 2026-05-08 03:16 | 51.95442 | 172.20201 | 34889 ft | 514 kts | 70° |
| 2026-05-08 03:17 | 51.97762 | 172.31157 | 34888 ft | 514 kts | 70° |
| 2026-05-08 03:17 | 52.00076 | 172.42132 | 34898 ft | 514 kts | 70° |
| 2026-05-08 03:18 | 52.02378 | 172.53108 | 34905 ft | 514 kts | 70° |
| 2026-05-08 03:18 | 52.04670 | 172.64105 | 34898 ft | 514 kts | 70° |
| 2026-05-08 03:19 | 52.06950 | 172.75104 | 34897 ft | 513 kts | 71° |
| 2026-05-08 03:19 | 52.09215 | 172.86095 | 34899 ft | 511 kts | 71° |
| 2026-05-08 03:20 | 52.11461 | 172.97052 | 34897 ft | 510 kts | 71° |
| 2026-05-08 03:20 | 52.13676 | 173.07915 | 34897 ft | 509 kts | 71° |
| 2026-05-08 03:21 | 52.15892 | 173.18848 | 34897 ft | 507 kts | 71° |
| 2026-05-08 03:21 | 52.18089 | 173.29749 | 34898 ft | 506 kts | 71° |
| 2026-05-08 03:22 | 52.20279 | 173.40665 | 34898 ft | 506 kts | 71° |
| 2026-05-08 03:22 | 52.22453 | 173.51560 | 34898 ft | 505 kts | 71° |
| 2026-05-08 03:23 | 52.24615 | 173.62472 | 34897 ft | 505 kts | 71° |
| 2026-05-08 03:23 | 52.26769 | 173.73395 | 34900 ft | 506 kts | 71° |
| 2026-05-08 03:24 | 52.28914 | 173.84346 | 34898 ft | 507 kts | 71° |
| 2026-05-08 03:24 | 52.31056 | 173.95328 | 34898 ft | 508 kts | 71° |
| 2026-05-08 03:25 | 52.33190 | 174.06330 | 34900 ft | 508 kts | 72° |
| 2026-05-08 03:25 | 52.35314 | 174.17352 | 34898 ft | 508 kts | 72° |
| 2026-05-08 03:26 | 52.37431 | 174.28394 | 34901 ft | 508 kts | 72° |
| 2026-05-08 03:26 | 52.39519 | 174.39357 | 34898 ft | 507 kts | 72° |
| 2026-05-08 03:27 | 52.41609 | 174.50401 | 34898 ft | 506 kts | 72° |
| 2026-05-08 03:27 | 52.43679 | 174.61406 | 34899 ft | 505 kts | 72° |
| 2026-05-08 03:28 | 52.45736 | 174.72397 | 34897 ft | 504 kts | 72° |
| 2026-05-08 03:28 | 52.47779 | 174.83370 | 34895 ft | 502 kts | 73° |
| 2026-05-08 03:29 | 52.49805 | 174.94325 | 34898 ft | 501 kts | 73° |
| 2026-05-08 03:29 | 52.51822 | 175.05280 | 34900 ft | 501 kts | 73° |
| 2026-05-08 03:30 | 52.54805 | 175.21633 | 34897 ft | 500 kts | 73° |
| 2026-05-08 03:31 | 52.58760 | 175.43541 | 34898 ft | 499 kts | 73° |
| 2026-05-08 03:32 | 52.61698 | 175.59983 | 34900 ft | 499 kts | 73° |
| 2026-05-08 03:32 | 52.63645 | 175.70950 | 34898 ft | 499 kts | 73° |
| 2026-05-08 03:33 | 52.65582 | 175.81935 | 34897 ft | 499 kts | 74° |
| 2026-05-08 03:33 | 52.67512 | 175.92944 | 34899 ft | 499 kts | 74° |
| 2026-05-08 03:34 | 52.69412 | 176.03868 | 34901 ft | 499 kts | 74° |
| 2026-05-08 03:34 | 52.71315 | 176.14870 | 34899 ft | 499 kts | 74° |
| 2026-05-08 03:35 | 52.73207 | 176.25864 | 34895 ft | 498 kts | 74° |
| 2026-05-08 03:35 | 52.75084 | 176.36848 | 34899 ft | 497 kts | 75° |
| 2026-05-08 03:36 | 52.76946 | 176.47825 | 34897 ft | 496 kts | 75° |
| 2026-05-08 03:36 | 52.78797 | 176.58789 | 34899 ft | 495 kts | 75° |
| 2026-05-08 03:37 | 52.80637 | 176.69760 | 34898 ft | 494 kts | 75° |
| 2026-05-08 03:37 | 52.82465 | 176.80720 | 34898 ft | 494 kts | 75° |
| 2026-05-08 03:38 | 52.84275 | 176.91665 | 34898 ft | 493 kts | 75° |
| 2026-05-08 03:38 | 52.86062 | 177.02517 | 34900 ft | 492 kts | 75° |
| 2026-05-08 03:39 | 52.87848 | 177.13438 | 34897 ft | 491 kts | 76° |
| 2026-05-08 03:39 | 52.89623 | 177.24368 | 34899 ft | 491 kts | 76° |
| 2026-05-08 03:40 | 52.91383 | 177.35287 | 34899 ft | 490 kts | 76° |
| 2026-05-08 03:40 | 52.93134 | 177.46205 | 34897 ft | 490 kts | 76° |
| 2026-05-08 03:41 | 52.94875 | 177.57129 | 34901 ft | 490 kts | 76° |
| 2026-05-08 03:41 | 52.96603 | 177.68038 | 34904 ft | 489 kts | 76° |
| 2026-05-08 03:42 | 52.98318 | 177.78952 | 34909 ft | 488 kts | 76° |
| 2026-05-08 03:42 | 53.00023 | 177.89861 | 34908 ft | 488 kts | 76° |
| 2026-05-08 03:43 | 53.01713 | 178.00776 | 34907 ft | 488 kts | 77° |
| 2026-05-08 03:43 | 53.03381 | 178.11606 | 34910 ft | 487 kts | 77° |
| 2026-05-08 03:44 | 53.05049 | 178.22500 | 34906 ft | 486 kts | 77° |
| 2026-05-08 03:44 | 53.06704 | 178.33381 | 34906 ft | 485 kts | 77° |
| 2026-05-08 03:45 | 53.08345 | 178.44245 | 34908 ft | 484 kts | 77° |
| 2026-05-08 03:45 | 53.09974 | 178.55111 | 34912 ft | 483 kts | 77° |
| 2026-05-08 03:46 | 53.11589 | 178.65961 | 34918 ft | 482 kts | 77° |
| 2026-05-08 03:46 | 53.13193 | 178.76799 | 34916 ft | 482 kts | 78° |
| 2026-05-08 03:47 | 53.14787 | 178.87636 | 34918 ft | 481 kts | 78° |
| 2026-05-08 03:47 | 53.16367 | 178.98472 | 34918 ft | 481 kts | 78° |
| 2026-05-08 03:48 | 53.17937 | 179.09309 | 34917 ft | 481 kts | 78° |
| 2026-05-08 03:48 | 53.19498 | 179.20158 | 34918 ft | 481 kts | 78° |
| 2026-05-08 03:49 | 53.21048 | 179.31006 | 34916 ft | 481 kts | 78° |
| 2026-05-08 03:49 | 53.22586 | 179.41863 | 34918 ft | 480 kts | 78° |
| 2026-05-08 03:50 | 53.24114 | 179.52700 | 34916 ft | 479 kts | 78° |
| 2026-05-08 03:50 | 53.25631 | 179.63535 | 34917 ft | 478 kts | 79° |
| 2026-05-08 03:51 | 53.27131 | 179.74349 | 34919 ft | 477 kts | 79° |
| 2026-05-08 03:51 | 53.28626 | 179.85153 | 34926 ft | 477 kts | 79° |
| 2026-05-08 03:52 | 53.30090 | 179.95879 | 34929 ft | 476 kts | 79° |
| 2026-05-08 03:52 | 53.31556 | -179.93317 | 34926 ft | 476 kts | 79° |
| 2026-05-08 03:53 | 53.33011 | -179.82520 | 34885 ft | 475 kts | 79° |
| 2026-05-08 03:53 | 53.34456 | -179.71751 | 34875 ft | 474 kts | 79° |
| 2026-05-08 03:54 | 53.35880 | -179.61001 | 34878 ft | 472 kts | 79° |
| 2026-05-08 03:54 | 53.37293 | -179.50266 | 34880 ft | 472 kts | 79° |
| 2026-05-08 03:55 | 53.38701 | -179.39530 | 34877 ft | 472 kts | 79° |
| 2026-05-08 03:55 | 53.40095 | -179.28799 | 34880 ft | 472 kts | 79° |
| 2026-05-08 03:56 | 53.41480 | -179.18051 | 34882 ft | 472 kts | 79° |
| 2026-05-08 03:56 | 53.42849 | -179.07353 | 34877 ft | 473 kts | 79° |
| 2026-05-08 03:57 | 53.44218 | -178.96568 | 34880 ft | 473 kts | 79° |
| 2026-05-08 03:57 | 53.45581 | -178.85765 | 34877 ft | 473 kts | 80° |
| 2026-05-08 03:58 | 53.46931 | -178.74954 | 34877 ft | 473 kts | 80° |
| 2026-05-08 03:58 | 53.48272 | -178.64137 | 34881 ft | 473 kts | 80° |
| 2026-05-08 03:59 | 53.49604 | -178.53327 | 34878 ft | 472 kts | 80° |
| 2026-05-08 03:59 | 53.50912 | -178.42600 | 34883 ft | 472 kts | 80° |
| 2026-05-08 04:00 | 53.52221 | -178.31799 | 34881 ft | 471 kts | 80° |
| 2026-05-08 04:00 | 53.53515 | -178.21016 | 34877 ft | 470 kts | 80° |
| 2026-05-08 04:01 | 53.54800 | -178.10239 | 34877 ft | 470 kts | 80° |
| 2026-05-08 04:01 | 53.56073 | -177.99459 | 34883 ft | 470 kts | 80° |
| 2026-05-08 04:02 | 53.57338 | -177.88679 | 34876 ft | 469 kts | 81° |
| 2026-05-08 04:02 | 53.58588 | -177.77910 | 34885 ft | 469 kts | 81° |
| 2026-05-08 04:03 | 53.59831 | -177.67135 | 34876 ft | 469 kts | 81° |
| 2026-05-08 04:03 | 53.61668 | -177.51037 | 34877 ft | 469 kts | 81° |
| 2026-05-08 04:04 | 53.62884 | -177.40251 | 34878 ft | 469 kts | 81° |
| 2026-05-08 04:04 | 53.64096 | -177.29455 | 34877 ft | 469 kts | 81° |
| 2026-05-08 04:05 | 53.65669 | -177.18766 | 34885 ft | 471 kts | 75° |
| 2026-05-08 04:05 | 53.67577 | -177.08192 | 34880 ft | 472 kts | 74° |
| 2026-05-08 04:06 | 53.69159 | -176.99386 | 34885 ft | 472 kts | 75° |
| 2026-05-08 04:06 | 53.71343 | -176.87030 | 34889 ft | 473 kts | 75° |
| 2026-05-08 04:07 | 53.72899 | -176.78102 | 34889 ft | 472 kts | 75° |
| 2026-05-08 04:07 | 53.74746 | -176.67441 | 34889 ft | 473 kts | 75° |
| 2026-05-08 04:08 | 53.76582 | -176.56764 | 34887 ft | 473 kts | 75° |
| 2026-05-08 04:08 | 53.78398 | -176.46148 | 34878 ft | 474 kts | 75° |
| 2026-05-08 04:09 | 53.80220 | -176.35446 | 34886 ft | 473 kts | 75° |
| 2026-05-08 04:09 | 53.82030 | -176.24756 | 34890 ft | 473 kts | 75° |
| 2026-05-08 04:10 | 53.83829 | -176.14049 | 34889 ft | 472 kts | 75° |
| 2026-05-08 04:10 | 53.85614 | -176.03348 | 34889 ft | 472 kts | 75° |
| 2026-05-08 04:11 | 53.87394 | -175.92620 | 34889 ft | 473 kts | 75° |
| 2026-05-08 04:11 | 53.89163 | -175.81894 | 34889 ft | 473 kts | 75° |
| 2026-05-08 04:12 | 53.90924 | -175.71148 | 34889 ft | 473 kts | 75° |
| 2026-05-08 04:12 | 53.92677 | -175.60388 | 34889 ft | 473 kts | 75° |
| 2026-05-08 04:13 | 53.94418 | -175.49636 | 34889 ft | 473 kts | 75° |
| 2026-05-08 04:13 | 53.96150 | -175.38865 | 34889 ft | 473 kts | 75° |
| 2026-05-08 04:14 | 53.97873 | -175.28094 | 34889 ft | 473 kts | 75° |
| 2026-05-08 04:14 | 53.99584 | -175.17308 | 34889 ft | 473 kts | 75° |
| 2026-05-08 04:15 | 54.01287 | -175.06510 | 34890 ft | 473 kts | 75° |
| 2026-05-08 04:15 | 54.02968 | -174.95774 | 34890 ft | 473 kts | 75° |
| 2026-05-08 04:16 | 54.04663 | -174.84891 | 34889 ft | 473 kts | 75° |
| 2026-05-08 04:16 | 54.06325 | -174.74143 | 34895 ft | 472 kts | 75° |
| 2026-05-08 04:17 | 54.07989 | -174.63313 | 34900 ft | 473 kts | 75° |
| 2026-05-08 04:17 | 54.09643 | -174.52461 | 34897 ft | 473 kts | 75° |
| 2026-05-08 04:18 | 54.11293 | -174.41598 | 34899 ft | 473 kts | 75° |
| 2026-05-08 04:18 | 54.12935 | -174.30714 | 34897 ft | 474 kts | 75° |
| 2026-05-08 04:19 | 54.14562 | -174.19824 | 34897 ft | 474 kts | 76° |
| 2026-05-08 04:19 | 54.16178 | -174.08926 | 34908 ft | 474 kts | 76° |
| 2026-05-08 04:20 | 54.17781 | -173.98069 | 34908 ft | 475 kts | 76° |
| 2026-05-08 04:20 | 54.19387 | -173.87136 | 34917 ft | 474 kts | 76° |
| 2026-05-08 04:21 | 54.20980 | -173.76195 | 34917 ft | 475 kts | 76° |
| 2026-05-08 04:21 | 54.22559 | -173.65234 | 34918 ft | 475 kts | 76° |
| 2026-05-08 04:22 | 54.24134 | -173.54263 | 34916 ft | 475 kts | 76° |
| 2026-05-08 04:22 | 54.25696 | -173.43289 | 34916 ft | 475 kts | 76° |
| 2026-05-08 04:23 | 54.27249 | -173.32303 | 34917 ft | 475 kts | 76° |
| 2026-05-08 04:23 | 54.28793 | -173.21319 | 34923 ft | 474 kts | 76° |
| 2026-05-08 04:24 | 54.30325 | -173.10333 | 34949 ft | 473 kts | 76° |
| 2026-05-08 04:24 | 54.31841 | -172.99367 | 34958 ft | 473 kts | 76° |
| 2026-05-08 04:25 | 54.33351 | -172.88383 | 34963 ft | 474 kts | 76° |
| 2026-05-08 04:25 | 54.34849 | -172.77387 | 34964 ft | 474 kts | 76° |
| 2026-05-08 04:26 | 54.36342 | -172.66364 | 34966 ft | 475 kts | 76° |
| 2026-05-08 04:26 | 54.37823 | -172.55331 | 34974 ft | 475 kts | 76° |
| 2026-05-08 04:27 | 54.39300 | -172.44263 | 34973 ft | 476 kts | 76° |
| 2026-05-08 04:27 | 54.40756 | -172.33264 | 34971 ft | 477 kts | 76° |
| 2026-05-08 04:28 | 54.42217 | -172.22135 | 34974 ft | 477 kts | 76° |
| 2026-05-08 04:29 | 54.45043 | -172.00390 | 34981 ft | 478 kts | 77° |
| 2026-05-08 04:29 | 54.46479 | -171.89228 | 34983 ft | 478 kts | 77° |
| 2026-05-08 04:30 | 54.47897 | -171.78059 | 34981 ft | 478 kts | 77° |
| 2026-05-08 04:30 | 54.49303 | -171.66889 | 34983 ft | 478 kts | 77° |
| 2026-05-08 04:31 | 54.50705 | -171.55717 | 34998 ft | 477 kts | 77° |
| 2026-05-08 04:31 | 54.52093 | -171.44560 | 34987 ft | 476 kts | 77° |
| 2026-05-08 04:32 | 54.53469 | -171.33412 | 34986 ft | 476 kts | 77° |
| 2026-05-08 04:32 | 54.54834 | -171.22275 | 34986 ft | 475 kts | 77° |
| 2026-05-08 04:33 | 54.56182 | -171.11134 | 35000 ft | 475 kts | 77° |
| 2026-05-08 04:33 | 54.57520 | -170.99994 | 35001 ft | 474 kts | 77° |
| 2026-05-08 04:34 | 54.58851 | -170.88855 | 34996 ft | 474 kts | 78° |
| 2026-05-08 04:34 | 54.60171 | -170.77712 | 34996 ft | 474 kts | 78° |
| 2026-05-08 04:35 | 54.61477 | -170.66563 | 34999 ft | 474 kts | 78° |
| 2026-05-08 04:35 | 54.62767 | -170.55482 | 34995 ft | 475 kts | 78° |
| 2026-05-08 04:36 | 54.64056 | -170.44302 | 35004 ft | 475 kts | 78° |
| 2026-05-08 04:36 | 54.65334 | -170.33123 | 35012 ft | 475 kts | 78° |
| 2026-05-08 04:37 | 54.66605 | -170.21921 | 35011 ft | 475 kts | 78° |
| 2026-05-08 04:37 | 54.67869 | -170.10666 | 35290 ft | 479 kts | 78° |
| 2026-05-08 04:38 | 54.68498 | -170.05018 | 35654 ft | 477 kts | 78° |
| 2026-05-08 04:38 | 54.69124 | -169.99396 | 35999 ft | 476 kts | 78° |
| 2026-05-08 04:38 | 54.69748 | -169.93762 | 36290 ft | 477 kts | 79° |
| 2026-05-08 04:38 | 54.70369 | -169.88126 | 36564 ft | 478 kts | 79° |
| 2026-05-08 04:39 | 54.70985 | -169.82521 | 37053 ft | 472 kts | 79° |
| 2026-05-08 04:39 | 54.71599 | -169.76915 | 37002 ft | 475 kts | 79° |
| 2026-05-08 04:39 | 54.72801 | -169.65804 | 37022 ft | 470 kts | 79° |
| 2026-05-08 04:40 | 54.73997 | -169.54645 | 37015 ft | 468 kts | 79° |
| 2026-05-08 04:40 | 54.75165 | -169.43676 | 37007 ft | 466 kts | 79° |
| 2026-05-08 04:41 | 54.76330 | -169.32646 | 37011 ft | 465 kts | 79° |
| 2026-05-08 04:41 | 54.77483 | -169.21613 | 37010 ft | 466 kts | 79° |
| 2026-05-08 04:42 | 54.78626 | -169.10567 | 37013 ft | 467 kts | 79° |
| 2026-05-08 04:42 | 54.79765 | -168.99471 | 37006 ft | 467 kts | 79° |
| 2026-05-08 04:43 | 54.80890 | -168.88372 | 37012 ft | 469 kts | 79° |
| 2026-05-08 04:43 | 54.82013 | -168.77224 | 37011 ft | 470 kts | 80° |
| 2026-05-08 04:44 | 54.83126 | -168.66038 | 37004 ft | 471 kts | 80° |
| 2026-05-08 04:44 | 54.84230 | -168.54828 | 37003 ft | 472 kts | 80° |
| 2026-05-08 04:45 | 54.85328 | -168.43590 | 36999 ft | 473 kts | 80° |
| 2026-05-08 04:45 | 54.86411 | -168.32413 | 37001 ft | 472 kts | 80° |
| 2026-05-08 04:46 | 54.87490 | -168.21158 | 36996 ft | 472 kts | 80° |
| 2026-05-08 04:46 | 54.88557 | -168.09914 | 36989 ft | 472 kts | 80° |
| 2026-05-08 04:47 | 54.89612 | -167.98664 | 36991 ft | 471 kts | 81° |
| 2026-05-08 04:47 | 54.90656 | -167.87421 | 36989 ft | 471 kts | 81° |
| 2026-05-08 04:48 | 54.91687 | -167.76192 | 36991 ft | 470 kts | 81° |
| 2026-05-08 04:48 | 54.92710 | -167.64968 | 36991 ft | 470 kts | 81° |
| 2026-05-08 04:49 | 54.93717 | -167.53752 | 36989 ft | 469 kts | 81° |
| 2026-05-08 04:49 | 54.94707 | -167.42598 | 36993 ft | 469 kts | 81° |
| 2026-05-08 04:50 | 54.95696 | -167.31382 | 36992 ft | 469 kts | 81° |
| 2026-05-08 04:50 | 54.96671 | -167.20160 | 36991 ft | 469 kts | 81° |
| 2026-05-08 04:51 | 54.97640 | -167.08918 | 36990 ft | 469 kts | 81° |
| 2026-05-08 04:51 | 54.98596 | -166.97671 | 36990 ft | 470 kts | 81° |
| 2026-05-08 04:52 | 54.99544 | -166.86409 | 36992 ft | 471 kts | 81° |
| 2026-05-08 04:52 | 55.00485 | -166.75119 | 36987 ft | 471 kts | 81° |
| 2026-05-08 04:53 | 55.01414 | -166.63816 | 36981 ft | 471 kts | 82° |
| 2026-05-08 04:53 | 55.02334 | -166.52492 | 36986 ft | 472 kts | 82° |
| 2026-05-08 04:54 | 55.03243 | -166.41161 | 36979 ft | 472 kts | 82° |
| 2026-05-08 04:54 | 55.04143 | -166.29817 | 36982 ft | 472 kts | 82° |
| 2026-05-08 04:55 | 55.05027 | -166.18550 | 36978 ft | 472 kts | 82° |
| 2026-05-08 04:55 | 55.05903 | -166.07212 | 36980 ft | 471 kts | 82° |
| 2026-05-08 04:56 | 55.06770 | -165.95877 | 36984 ft | 471 kts | 82° |
| 2026-05-08 04:56 | 55.07625 | -165.84549 | 36976 ft | 471 kts | 82° |
| 2026-05-08 04:57 | 55.08471 | -165.73208 | 36980 ft | 471 kts | 82° |
| 2026-05-08 04:57 | 55.09305 | -165.61877 | 36984 ft | 471 kts | 82° |
| 2026-05-08 04:58 | 55.10129 | -165.50530 | 36971 ft | 471 kts | 82° |
| 2026-05-08 04:58 | 55.10939 | -165.39169 | 36974 ft | 471 kts | 83° |
| 2026-05-08 04:59 | 55.11744 | -165.27806 | 36972 ft | 472 kts | 83° |
| 2026-05-08 04:59 | 55.12543 | -165.16418 | 36973 ft | 472 kts | 83° |
| 2026-05-08 05:00 | 55.13325 | -165.05023 | 36972 ft | 472 kts | 83° |
| 2026-05-08 05:00 | 55.14095 | -164.93615 | 36972 ft | 473 kts | 83° |
| 2026-05-08 05:01 | 55.14854 | -164.82274 | 36970 ft | 473 kts | 83° |
| 2026-05-08 05:01 | 55.15615 | -164.70777 | 36963 ft | 473 kts | 83° |
| 2026-05-08 05:02 | 55.16353 | -164.59424 | 36965 ft | 473 kts | 83° |
| 2026-05-08 05:02 | 55.17082 | -164.47968 | 36963 ft | 474 kts | 83° |
| 2026-05-08 05:03 | 55.17804 | -164.36505 | 36962 ft | 474 kts | 83° |
| 2026-05-08 05:03 | 55.18516 | -164.25053 | 36964 ft | 474 kts | 84° |
| 2026-05-08 05:04 | 55.19216 | -164.13596 | 36962 ft | 473 kts | 84° |
| 2026-05-08 05:04 | 55.19904 | -164.02133 | 36963 ft | 473 kts | 84° |
| 2026-05-08 05:05 | 55.20584 | -163.90665 | 36961 ft | 473 kts | 84° |
| 2026-05-08 05:05 | 55.21253 | -163.79211 | 36964 ft | 473 kts | 84° |
| 2026-05-08 05:06 | 55.21903 | -163.67798 | 36963 ft | 473 kts | 84° |
| 2026-05-08 05:06 | 55.22552 | -163.56313 | 36962 ft | 474 kts | 84° |
| 2026-05-08 05:07 | 55.23187 | -163.44833 | 36961 ft | 474 kts | 84° |
| 2026-05-08 05:07 | 55.23815 | -163.33343 | 36951 ft | 474 kts | 84° |
| 2026-05-08 05:08 | 55.24326 | -163.23713 | 36955 ft | 474 kts | 84° |
| 2026-05-08 05:08 | 55.24933 | -163.12217 | 36953 ft | 474 kts | 84° |
| 2026-05-08 05:09 | 55.25525 | -163.00769 | 36954 ft | 474 kts | 85° |
| 2026-05-08 05:09 | 55.26209 | -162.87301 | 36954 ft | 475 kts | 85° |
| 2026-05-08 05:10 | 55.26325 | -162.71937 | 36962 ft | 474 kts | 97° |
| 2026-05-08 05:11 | 55.25324 | -162.60512 | 36953 ft | 475 kts | 99° |
| 2026-05-08 05:11 | 55.24286 | -162.49080 | 36956 ft | 475 kts | 99° |
| 2026-05-08 05:12 | 55.23271 | -162.37652 | 36956 ft | 475 kts | 99° |
| 2026-05-08 05:12 | 55.22258 | -162.26215 | 36966 ft | 475 kts | 99° |
| 2026-05-08 05:13 | 55.21241 | -162.14770 | 36962 ft | 476 kts | 99° |
| 2026-05-08 05:13 | 55.20210 | -162.03325 | 36966 ft | 476 kts | 99° |
| 2026-05-08 05:14 | 55.19167 | -161.91869 | 36960 ft | 477 kts | 99° |
| 2026-05-08 05:14 | 55.18113 | -161.80424 | 36964 ft | 477 kts | 99° |
| 2026-05-08 05:15 | 55.17047 | -161.68967 | 36963 ft | 477 kts | 99° |
| 2026-05-08 05:15 | 55.15971 | -161.57515 | 36963 ft | 477 kts | 99° |
| 2026-05-08 05:16 | 55.14882 | -161.46080 | 36962 ft | 477 kts | 99° |
| 2026-05-08 05:16 | 55.13782 | -161.34636 | 36963 ft | 477 kts | 100° |
| 2026-05-08 05:17 | 55.12669 | -161.23187 | 36962 ft | 477 kts | 100° |
| 2026-05-08 05:17 | 55.11552 | -161.11758 | 36963 ft | 477 kts | 100° |
| 2026-05-08 05:18 | 55.10429 | -161.00395 | 36962 ft | 477 kts | 100° |
| 2026-05-08 05:18 | 55.09285 | -160.88963 | 36965 ft | 478 kts | 100° |
| 2026-05-08 05:19 | 55.08128 | -160.77537 | 36963 ft | 478 kts | 100° |
| 2026-05-08 05:19 | 55.06965 | -160.66118 | 36963 ft | 478 kts | 101° |
| 2026-05-08 05:20 | 55.05790 | -160.54705 | 36962 ft | 478 kts | 101° |
| 2026-05-08 05:20 | 55.04600 | -160.43274 | 36963 ft | 478 kts | 101° |
| 2026-05-08 05:21 | 55.03405 | -160.31872 | 36963 ft | 478 kts | 101° |
| 2026-05-08 05:21 | 55.02196 | -160.20472 | 36963 ft | 478 kts | 101° |
| 2026-05-08 05:22 | 55.00982 | -160.09084 | 36963 ft | 478 kts | 101° |
| 2026-05-08 05:22 | 55.00161 | -159.97606 | 36960 ft | 479 kts | 92° |
| 2026-05-08 05:23 | 55.00470 | -159.86018 | 36970 ft | 479 kts | 86° |
| 2026-05-08 05:23 | 55.00978 | -159.74432 | 36962 ft | 479 kts | 86° |
| 2026-05-08 05:24 | 55.01455 | -159.62844 | 36966 ft | 480 kts | 86° |
| 2026-05-08 05:24 | 55.01897 | -159.51313 | 36962 ft | 480 kts | 87° |
| 2026-05-08 05:25 | 55.02322 | -159.39697 | 36966 ft | 480 kts | 86° |
| 2026-05-08 05:25 | 55.02735 | -159.28084 | 36961 ft | 480 kts | 87° |
| 2026-05-08 05:26 | 55.03136 | -159.16458 | 36964 ft | 480 kts | 87° |
| 2026-05-08 05:26 | 55.03526 | -159.04826 | 36958 ft | 481 kts | 87° |
| 2026-05-08 05:27 | 55.03910 | -158.93200 | 36953 ft | 481 kts | 87° |
| 2026-05-08 05:27 | 55.04275 | -158.81554 | 36955 ft | 481 kts | 87° |
| 2026-05-08 05:28 | 55.04637 | -158.69926 | 36953 ft | 480 kts | 88° |
| 2026-05-08 05:28 | 55.04985 | -158.58303 | 36953 ft | 480 kts | 88° |
| 2026-05-08 05:29 | 55.05319 | -158.46687 | 36954 ft | 480 kts | 88° |
| 2026-05-08 05:29 | 55.05647 | -158.35063 | 36954 ft | 479 kts | 88° |
| 2026-05-08 05:30 | 55.05960 | -158.23448 | 36954 ft | 480 kts | 88° |
| 2026-05-08 05:30 | 55.06263 | -158.11822 | 36956 ft | 479 kts | 88° |
| 2026-05-08 05:31 | 55.06555 | -158.00202 | 36964 ft | 479 kts | 88° |
| 2026-05-08 05:31 | 55.06834 | -157.88589 | 36962 ft | 480 kts | 88° |
| 2026-05-08 05:32 | 55.07105 | -157.76952 | 36964 ft | 480 kts | 88° |
| 2026-05-08 05:32 | 55.07364 | -157.65300 | 36962 ft | 480 kts | 88° |
| 2026-05-08 05:33 | 55.07612 | -157.53668 | 36964 ft | 480 kts | 89° |
| 2026-05-08 05:33 | 55.07849 | -157.42028 | 36963 ft | 480 kts | 89° |
| 2026-05-08 05:34 | 55.08073 | -157.30391 | 36962 ft | 480 kts | 89° |
| 2026-05-08 05:34 | 55.08287 | -157.18744 | 36965 ft | 480 kts | 89° |
| 2026-05-08 05:35 | 55.08490 | -157.07167 | 36961 ft | 480 kts | 89° |
| 2026-05-08 05:35 | 55.08684 | -156.95519 | 36962 ft | 480 kts | 89° |
| 2026-05-08 05:36 | 55.08865 | -156.83874 | 36963 ft | 480 kts | 89° |
| 2026-05-08 05:36 | 55.09035 | -156.72225 | 36963 ft | 480 kts | 89° |
| 2026-05-08 05:37 | 55.09193 | -156.60569 | 36963 ft | 480 kts | 89° |
| 2026-05-08 05:37 | 55.09341 | -156.48909 | 36962 ft | 480 kts | 90° |
| 2026-05-08 05:38 | 55.09477 | -156.37262 | 36963 ft | 480 kts | 90° |
| 2026-05-08 05:38 | 55.09603 | -156.25605 | 36963 ft | 480 kts | 90° |
| 2026-05-08 05:39 | 55.09718 | -156.13948 | 36963 ft | 480 kts | 90° |
| 2026-05-08 05:39 | 55.09819 | -156.02305 | 36962 ft | 479 kts | 90° |
| 2026-05-08 05:40 | 55.09913 | -155.90726 | 36965 ft | 480 kts | 90° |
| 2026-05-08 05:40 | 55.09993 | -155.79013 | 36962 ft | 479 kts | 90° |
| 2026-05-08 05:41 | 55.10064 | -155.67457 | 36964 ft | 479 kts | 90° |
| 2026-05-08 05:41 | 55.10125 | -155.55818 | 36963 ft | 479 kts | 90° |
| 2026-05-08 05:42 | 55.10171 | -155.44188 | 36962 ft | 479 kts | 91° |
| 2026-05-08 05:42 | 55.10206 | -155.32537 | 36963 ft | 480 kts | 91° |
| 2026-05-08 05:43 | 55.10232 | -155.20873 | 36964 ft | 480 kts | 91° |
| 2026-05-08 05:43 | 55.10246 | -155.09220 | 36964 ft | 480 kts | 91° |
| 2026-05-08 05:44 | 55.10251 | -154.97548 | 36964 ft | 480 kts | 91° |
| 2026-05-08 05:44 | 55.10243 | -154.85894 | 36962 ft | 480 kts | 91° |
| 2026-05-08 05:45 | 55.10223 | -154.74248 | 36962 ft | 480 kts | 91° |
| 2026-05-08 05:45 | 55.10192 | -154.62598 | 36963 ft | 480 kts | 91° |
| 2026-05-08 05:46 | 55.10153 | -154.50955 | 36962 ft | 479 kts | 91° |
| 2026-05-08 05:46 | 55.10103 | -154.39310 | 36962 ft | 479 kts | 92° |
| 2026-05-08 05:47 | 55.10035 | -154.27681 | 36962 ft | 479 kts | 92° |
| 2026-05-08 05:47 | 55.09962 | -154.16057 | 36963 ft | 478 kts | 92° |
| 2026-05-08 05:48 | 55.09878 | -154.04450 | 36971 ft | 478 kts | 92° |
| 2026-05-08 05:48 | 55.09778 | -153.92827 | 36974 ft | 479 kts | 92° |
| 2026-05-08 05:49 | 55.09671 | -153.81281 | 36972 ft | 479 kts | 92° |
| 2026-05-08 05:49 | 55.09557 | -153.69585 | 36973 ft | 479 kts | 92° |
| 2026-05-08 05:50 | 55.09424 | -153.57968 | 36974 ft | 479 kts | 92° |
| 2026-05-08 05:50 | 55.09286 | -153.46335 | 36972 ft | 479 kts | 92° |
| 2026-05-08 05:51 | 55.09133 | -153.34709 | 36974 ft | 479 kts | 93° |
| 2026-05-08 05:51 | 55.08967 | -153.23157 | 36971 ft | 478 kts | 93° |
| 2026-05-08 05:52 | 55.08797 | -153.11569 | 36971 ft | 478 kts | 93° |
| 2026-05-08 05:52 | 55.08616 | -152.99976 | 36972 ft | 477 kts | 93° |
| 2026-05-08 05:53 | 55.08422 | -152.88409 | 36973 ft | 478 kts | 93° |
| 2026-05-08 05:53 | 55.08247 | -152.78696 | 36976 ft | 477 kts | 93° |
| 2026-05-08 05:54 | 55.08030 | -152.67137 | 36982 ft | 476 kts | 93° |
| 2026-05-08 05:54 | 55.07767 | -152.53723 | 36979 ft | 476 kts | 94° |
| 2026-05-08 05:55 | 55.07570 | -152.44052 | 36981 ft | 475 kts | 94° |
| 2026-05-08 05:55 | 55.07321 | -152.32521 | 36971 ft | 475 kts | 94° |
| 2026-05-08 05:56 | 55.07064 | -152.21059 | 36980 ft | 476 kts | 94° |
| 2026-05-08 05:56 | 55.06793 | -152.09523 | 36992 ft | 476 kts | 94° |
| 2026-05-08 05:57 | 55.06513 | -151.97981 | 37003 ft | 476 kts | 94° |
| 2026-05-08 05:57 | 55.06222 | -151.86434 | 37003 ft | 476 kts | 94° |
| 2026-05-08 05:58 | 55.05919 | -151.74881 | 37009 ft | 477 kts | 94° |
| 2026-05-08 05:58 | 55.05604 | -151.63339 | 37014 ft | 477 kts | 94° |
| 2026-05-08 05:59 | 55.05280 | -151.51796 | 37007 ft | 476 kts | 94° |
| 2026-05-08 05:59 | 55.04949 | -151.40258 | 37012 ft | 476 kts | 94° |
| 2026-05-08 06:00 | 55.04608 | -151.28825 | 37019 ft | 475 kts | 95° |
| 2026-05-08 06:00 | 55.04250 | -151.17293 | 37018 ft | 475 kts | 95° |
| 2026-05-08 06:01 | 55.03882 | -151.05807 | 37019 ft | 475 kts | 95° |
| 2026-05-08 06:01 | 55.03503 | -150.94324 | 37020 ft | 474 kts | 95° |
| 2026-05-08 06:02 | 55.03117 | -150.82842 | 37019 ft | 474 kts | 95° |
| 2026-05-08 06:02 | 55.02720 | -150.71372 | 37017 ft | 474 kts | 95° |
| 2026-05-08 06:03 | 55.02310 | -150.59908 | 37019 ft | 473 kts | 95° |
| 2026-05-08 06:03 | 55.01893 | -150.48469 | 37018 ft | 473 kts | 95° |
| 2026-05-08 06:04 | 55.01464 | -150.37036 | 37018 ft | 473 kts | 95° |
| 2026-05-08 06:04 | 55.01023 | -150.25612 | 37019 ft | 473 kts | 95° |
| 2026-05-08 06:05 | 55.00573 | -150.14172 | 37021 ft | 473 kts | 95° |
| 2026-05-08 06:05 | 55.00101 | -150.02749 | 37016 ft | 472 kts | 97° |
| 2026-05-08 06:06 | 54.98828 | -149.91580 | 37023 ft | 470 kts | 107° |
| 2026-05-08 06:06 | 54.97108 | -149.80608 | 37020 ft | 470 kts | 107° |
| 2026-05-08 06:07 | 54.95401 | -149.69710 | 37019 ft | 469 kts | 107° |
| 2026-05-08 06:07 | 54.93702 | -149.58753 | 37020 ft | 469 kts | 107° |
| 2026-05-08 06:08 | 54.92004 | -149.47785 | 37008 ft | 470 kts | 107° |
| 2026-05-08 06:08 | 54.90299 | -149.36816 | 37017 ft | 470 kts | 107° |
| 2026-05-08 06:09 | 54.88577 | -149.25848 | 37021 ft | 471 kts | 108° |
| 2026-05-08 06:09 | 54.86845 | -149.14890 | 37026 ft | 471 kts | 108° |
| 2026-05-08 06:10 | 54.85103 | -149.03924 | 37030 ft | 471 kts | 108° |
| 2026-05-08 06:10 | 54.83349 | -148.92961 | 37026 ft | 472 kts | 108° |
| 2026-05-08 06:11 | 54.81586 | -148.82005 | 37028 ft | 471 kts | 108° |
| 2026-05-08 06:11 | 54.79815 | -148.71072 | 37028 ft | 471 kts | 108° |
| 2026-05-08 06:12 | 54.78035 | -148.60159 | 37026 ft | 470 kts | 108° |
| 2026-05-08 06:12 | 54.76247 | -148.49275 | 37027 ft | 469 kts | 108° |
| 2026-05-08 06:13 | 54.74455 | -148.38418 | 37027 ft | 469 kts | 108° |
| 2026-05-08 06:13 | 54.72653 | -148.27587 | 37028 ft | 468 kts | 108° |
| 2026-05-08 06:14 | 54.70848 | -148.16791 | 37029 ft | 467 kts | 108° |
| 2026-05-08 06:14 | 54.69030 | -148.06005 | 37028 ft | 467 kts | 108° |
| 2026-05-08 06:15 | 54.67209 | -147.95245 | 37026 ft | 466 kts | 108° |
| 2026-05-08 06:15 | 54.65380 | -147.84507 | 37028 ft | 465 kts | 108° |
| 2026-05-08 06:16 | 54.63556 | -147.73868 | 37028 ft | 465 kts | 109° |
| 2026-05-08 06:16 | 54.61712 | -147.63182 | 37044 ft | 465 kts | 109° |
| 2026-05-08 06:17 | 54.58928 | -147.47155 | 37069 ft | 464 kts | 109° |
| 2026-05-08 06:17 | 54.57059 | -147.36485 | 37073 ft | 465 kts | 109° |
| 2026-05-08 06:18 | 54.55184 | -147.25830 | 37075 ft | 466 kts | 109° |
| 2026-05-08 06:18 | 54.53292 | -147.15150 | 37074 ft | 466 kts | 109° |
| 2026-05-08 06:19 | 54.51388 | -147.04471 | 37075 ft | 467 kts | 109° |
| 2026-05-08 06:19 | 54.49470 | -146.93764 | 37074 ft | 467 kts | 109° |
| 2026-05-08 06:20 | 54.47548 | -146.83078 | 37075 ft | 468 kts | 109° |
| 2026-05-08 06:20 | 54.45611 | -146.72407 | 37074 ft | 467 kts | 109° |
| 2026-05-08 06:21 | 54.43666 | -146.61751 | 37074 ft | 467 kts | 110° |
| 2026-05-08 06:21 | 54.41716 | -146.51121 | 37073 ft | 466 kts | 110° |
| 2026-05-08 06:22 | 54.39761 | -146.40522 | 37072 ft | 465 kts | 110° |
| 2026-05-08 06:22 | 54.37812 | -146.30013 | 37074 ft | 465 kts | 110° |
| 2026-05-08 06:23 | 54.35846 | -146.19477 | 37099 ft | 464 kts | 110° |
| 2026-05-08 06:23 | 54.33876 | -146.08969 | 37089 ft | 463 kts | 110° |
| 2026-05-08 06:24 | 54.31895 | -145.98474 | 37089 ft | 463 kts | 110° |
| 2026-05-08 06:24 | 54.29905 | -145.87996 | 37088 ft | 463 kts | 110° |
| 2026-05-08 06:25 | 54.27909 | -145.77527 | 37082 ft | 463 kts | 110° |
| 2026-05-08 06:25 | 54.25903 | -145.67063 | 37101 ft | 463 kts | 110° |
| 2026-05-08 06:26 | 54.23884 | -145.56606 | 37100 ft | 463 kts | 110° |
| 2026-05-08 06:26 | 54.21855 | -145.46148 | 37085 ft | 464 kts | 110° |
| 2026-05-08 06:27 | 54.19813 | -145.35680 | 37080 ft | 464 kts | 110° |
| 2026-05-08 06:27 | 54.17766 | -145.25230 | 37081 ft | 464 kts | 110° |
| 2026-05-08 06:28 | 54.15707 | -145.14786 | 37084 ft | 465 kts | 111° |
| 2026-05-08 06:28 | 54.13631 | -145.04324 | 37084 ft | 466 kts | 111° |
| 2026-05-08 06:29 | 54.11549 | -144.93876 | 37083 ft | 466 kts | 111° |
| 2026-05-08 06:29 | 54.09473 | -144.83505 | 37084 ft | 465 kts | 111° |
| 2026-05-08 06:30 | 54.07377 | -144.73090 | 37085 ft | 465 kts | 111° |
| 2026-05-08 06:30 | 54.05273 | -144.62701 | 37083 ft | 464 kts | 111° |
| 2026-05-08 06:31 | 54.03163 | -144.52325 | 37082 ft | 463 kts | 111° |
| 2026-05-08 06:31 | 54.01047 | -144.41977 | 37083 ft | 463 kts | 111° |
| 2026-05-08 06:32 | 53.98923 | -144.31654 | 37083 ft | 462 kts | 111° |
| 2026-05-08 06:32 | 53.96792 | -144.21358 | 37083 ft | 461 kts | 111° |
| 2026-05-08 06:33 | 53.94661 | -144.11097 | 37081 ft | 461 kts | 111° |
| 2026-05-08 06:33 | 53.92518 | -144.00827 | 37084 ft | 461 kts | 111° |
| 2026-05-08 06:34 | 53.90367 | -143.90588 | 37080 ft | 461 kts | 111° |
| 2026-05-08 06:34 | 53.88211 | -143.80364 | 37084 ft | 461 kts | 112° |
| 2026-05-08 06:35 | 53.86045 | -143.70146 | 37083 ft | 461 kts | 112° |
| 2026-05-08 06:35 | 53.83869 | -143.59944 | 37083 ft | 461 kts | 112° |
| 2026-05-08 06:36 | 53.81683 | -143.49738 | 37082 ft | 461 kts | 112° |
| 2026-05-08 06:36 | 53.79507 | -143.39624 | 37099 ft | 460 kts | 112° |
| 2026-05-08 06:37 | 53.77307 | -143.29451 | 37098 ft | 461 kts | 112° |
| 2026-05-08 06:37 | 53.75096 | -143.19283 | 37093 ft | 461 kts | 112° |
| 2026-05-08 06:38 | 53.72875 | -143.09123 | 37087 ft | 461 kts | 112° |
| 2026-05-08 06:38 | 53.70647 | -142.98978 | 37093 ft | 461 kts | 112° |
| 2026-05-08 06:39 | 53.68409 | -142.88822 | 37084 ft | 462 kts | 112° |
| 2026-05-08 06:39 | 53.66162 | -142.78683 | 37094 ft | 461 kts | 112° |
| 2026-05-08 06:40 | 53.63907 | -142.68563 | 37103 ft | 461 kts | 112° |
| 2026-05-08 06:40 | 53.62028 | -142.60157 | 37082 ft | 461 kts | 112° |
| 2026-05-08 06:41 | 53.59760 | -142.50075 | 37094 ft | 461 kts | 112° |
| 2026-05-08 06:41 | 53.57483 | -142.40002 | 37084 ft | 461 kts | 113° |
| 2026-05-08 06:42 | 53.55195 | -142.29927 | 37084 ft | 461 kts | 113° |
| 2026-05-08 06:42 | 53.52900 | -142.19860 | 37083 ft | 461 kts | 113° |
| 2026-05-08 06:43 | 53.50596 | -142.09803 | 37084 ft | 461 kts | 113° |
| 2026-05-08 06:43 | 53.48283 | -141.99754 | 37083 ft | 461 kts | 113° |
| 2026-05-08 06:44 | 53.45961 | -141.89714 | 37084 ft | 462 kts | 113° |
| 2026-05-08 06:44 | 53.43629 | -141.79674 | 37083 ft | 462 kts | 113° |
| 2026-05-08 06:45 | 53.41289 | -141.69651 | 37083 ft | 461 kts | 113° |
| 2026-05-08 06:45 | 53.38940 | -141.59634 | 37082 ft | 461 kts | 114° |
| 2026-05-08 06:46 | 53.36582 | -141.49632 | 37082 ft | 461 kts | 114° |
| 2026-05-08 06:46 | 53.34221 | -141.39659 | 37083 ft | 461 kts | 114° |
| 2026-05-08 06:47 | 53.31854 | -141.29704 | 37084 ft | 460 kts | 114° |
| 2026-05-08 06:47 | 53.29478 | -141.19765 | 37083 ft | 461 kts | 114° |
| 2026-05-08 06:48 | 53.27092 | -141.09822 | 37082 ft | 461 kts | 114° |
| 2026-05-08 06:48 | 53.24699 | -140.99901 | 37082 ft | 461 kts | 114° |
| 2026-05-08 06:49 | 53.22297 | -140.89984 | 37085 ft | 461 kts | 114° |
| 2026-05-08 06:49 | 53.19885 | -140.80074 | 37080 ft | 461 kts | 114° |
| 2026-05-08 06:50 | 53.17467 | -140.70182 | 37085 ft | 461 kts | 114° |
| 2026-05-08 06:50 | 53.15037 | -140.60292 | 37081 ft | 461 kts | 114° |
| 2026-05-08 06:51 | 53.12605 | -140.50420 | 37083 ft | 461 kts | 114° |
| 2026-05-08 06:51 | 53.10159 | -140.40553 | 37085 ft | 461 kts | 115° |
| 2026-05-08 06:52 | 53.07705 | -140.30699 | 37071 ft | 462 kts | 115° |
| 2026-05-08 06:52 | 53.05241 | -140.20839 | 37062 ft | 461 kts | 115° |
| 2026-05-08 06:53 | 53.02774 | -140.11001 | 37064 ft | 461 kts | 115° |
| 2026-05-08 06:53 | 53.00313 | -140.01237 | 37066 ft | 461 kts | 114° |
| 2026-05-08 06:54 | 52.98204 | -139.91187 | 37069 ft | 462 kts | 110° |
| 2026-05-08 06:54 | 52.96223 | -139.81034 | 37066 ft | 462 kts | 110° |
| 2026-05-08 06:55 | 52.94228 | -139.70890 | 37066 ft | 463 kts | 110° |
| 2026-05-08 06:55 | 52.92213 | -139.60761 | 37066 ft | 463 kts | 110° |
| 2026-05-08 06:56 | 52.90180 | -139.50635 | 37076 ft | 463 kts | 111° |
| 2026-05-08 06:56 | 52.88140 | -139.40521 | 37075 ft | 463 kts | 111° |
| 2026-05-08 06:57 | 52.86084 | -139.30412 | 37074 ft | 464 kts | 111° |
| 2026-05-08 06:57 | 52.84023 | -139.20314 | 37075 ft | 463 kts | 111° |
| 2026-05-08 06:58 | 52.81954 | -139.10218 | 37073 ft | 463 kts | 111° |
| 2026-05-08 06:58 | 52.79878 | -139.00133 | 37074 ft | 464 kts | 111° |
| 2026-05-08 06:59 | 52.77788 | -138.90049 | 37074 ft | 464 kts | 111° |
| 2026-05-08 06:59 | 52.75689 | -138.79973 | 37073 ft | 463 kts | 111° |
| 2026-05-08 07:00 | 52.73586 | -138.69917 | 37074 ft | 464 kts | 111° |
| 2026-05-08 07:00 | 52.71472 | -138.59860 | 37074 ft | 464 kts | 111° |
| 2026-05-08 07:01 | 52.69353 | -138.49817 | 37074 ft | 464 kts | 112° |
| 2026-05-08 07:01 | 52.67225 | -138.39792 | 37072 ft | 463 kts | 112° |
| 2026-05-08 07:02 | 52.65082 | -138.29774 | 37075 ft | 464 kts | 112° |
| 2026-05-08 07:02 | 52.62934 | -138.19750 | 37073 ft | 464 kts | 112° |
| 2026-05-08 07:03 | 52.60779 | -138.09756 | 37073 ft | 463 kts | 112° |
| 2026-05-08 07:03 | 52.58621 | -137.99783 | 37074 ft | 463 kts | 112° |
| 2026-05-08 07:04 | 52.56453 | -137.89816 | 37073 ft | 463 kts | 112° |
| 2026-05-08 07:04 | 52.54278 | -137.79872 | 37075 ft | 463 kts | 112° |
| 2026-05-08 07:05 | 52.52094 | -137.69926 | 37076 ft | 463 kts | 112° |
| 2026-05-08 07:05 | 52.49915 | -137.60053 | 37072 ft | 463 kts | 112° |
| 2026-05-08 07:06 | 52.47713 | -137.50130 | 37075 ft | 464 kts | 113° |
| 2026-05-08 07:06 | 52.45504 | -137.40228 | 37074 ft | 464 kts | 113° |
| 2026-05-08 07:07 | 52.43277 | -137.30283 | 37074 ft | 464 kts | 113° |
| 2026-05-08 07:07 | 52.41045 | -137.20362 | 37063 ft | 465 kts | 113° |
| 2026-05-08 07:08 | 52.38800 | -137.10434 | 37057 ft | 465 kts | 113° |
| 2026-05-08 07:08 | 52.36548 | -137.00510 | 37054 ft | 465 kts | 113° |
| 2026-05-08 07:09 | 52.34286 | -136.90599 | 37056 ft | 465 kts | 114° |
| 2026-05-08 07:09 | 52.32027 | -136.80752 | 37048 ft | 465 kts | 114° |
| 2026-05-08 07:10 | 52.29748 | -136.70852 | 37033 ft | 465 kts | 114° |